Wetterdaten: Freitag, 02.10.2020
Datum Zeit Temp. Aussen Temp. o. S. Temp +5cm Feuchte Auss Luftdruck Regen Sonnenschein Regendauer Solar Windben Empfang
02.10.2020 00:00 11,6 C 10,6 C 10,0 C 94 % 1000,7 hPa 0,0 l/m 0 min 0 min 0 W/m 3,2 km/h (1 Bft) 97,30 %
02.10.2020 00:02 11,6 C 10,6 C 10,0 C 94 % 1000,7 hPa 0,0 l/m 0 min 0 min 0 W/m 0,0 km/h (0 Bft) 15,38 %
02.10.2020 00:04 11,6 C 10,6 C 10,0 C 94 % 1000,7 hPa 0,0 l/m 0 min 0 min 0 W/m 3,2 km/h (1 Bft) 79,17 %
02.10.2020 00:07 11,6 C 10,6 C 10,0 C 94 % 1000,6 hPa 0,0 l/m 0 min 0 min 0 W/m 6,4 km/h (2 Bft) 97,14 %
02.10.2020 00:08 11,6 C 10,6 C 10,0 C 94 % 1000,6 hPa 0,0 l/m 0 min 0 min 0 W/m 12,9 km/h (3 Bft) 100,00 %
02.10.2020 00:10 11,6 C 10,6 C 10,0 C 94 % 1000,6 hPa 0,0 l/m 0 min 0 min 0 W/m 12,9 km/h (3 Bft) 95,74 %
02.10.2020 00:12 11,6 C 10,6 C 10,0 C 94 % 1000,6 hPa 0,0 l/m 0 min 0 min 0 W/m 6,4 km/h (2 Bft) 100,00 %
02.10.2020 00:14 11,6 C 10,6 C 10,0 C 94 % 1000,5 hPa 0,0 l/m 0 min 0 min 0 W/m 0,0 km/h (0 Bft) 97,87 %
02.10.2020 00:16 11,6 C 10,6 C 10,0 C 94 % 1000,5 hPa 0,0 l/m 0 min 0 min 0 W/m 0,0 km/h (0 Bft) 100,00 %
02.10.2020 00:18 11,6 C 10,6 C 10,0 C 94 % 1000,5 hPa 0,0 l/m 0 min 0 min 0 W/m 0,0 km/h (0 Bft) 100,00 %
02.10.2020 00:20 11,6 C 10,6 C 10,0 C 94 % 1000,5 hPa 0,0 l/m 0 min 2 min 0 W/m 0,0 km/h (0 Bft) 100,00 %
02.10.2020 00:22 11,6 C 10,6 C 10,0 C 94 % 1000,4 hPa 0,0 l/m 0 min 0 min 0 W/m 0,0 km/h (0 Bft) 95,74 %
02.10.2020 00:24 11,6 C 10,6 C 10,0 C 94 % 1000,4 hPa 0,0 l/m 0 min 2 min 0 W/m 0,0 km/h (0 Bft) 100,00 %
02.10.2020 00:26 11,6 C 10,6 C 10,0 C 94 % 1000,4 hPa 0,0 l/m 0 min 2 min 0 W/m 0,0 km/h (0 Bft) 100,00 %
02.10.2020 00:28 11,6 C 10,0 C 10,0 C 94 % 1000,4 hPa 0,0 l/m 0 min 2 min 0 W/m 0,0 km/h (0 Bft) 100,00 %
02.10.2020 00:30 11,6 C 10,0 C 10,0 C 94 % 1000,4 hPa 0,0 l/m 0 min 2 min 0 W/m 0,0 km/h (0 Bft) 100,00 %
02.10.2020 00:32 11,6 C 10,0 C 10,0 C 94 % 1000,5 hPa 0,0 l/m 0 min 2 min 0 W/m 0,0 km/h (0 Bft) 100,00 %
02.10.2020 00:34 11,6 C 10,0 C 10,0 C 94 % 1000,4 hPa 0,0 l/m 0 min 2 min 0 W/m 0,0 km/h (0 Bft) 100,00 %
02.10.2020 00:36 11,6 C 10,0 C 10,0 C 94 % 1000,3 hPa 0,0 l/m 0 min 0 min 0 W/m 0,0 km/h (0 Bft) 94,44 %
02.10.2020 00:38 11,6 C 10,0 C 10,0 C 94 % 1000,2 hPa 0,0 l/m 0 min 0 min 0 W/m 0,0 km/h (0 Bft) 100,00 %
02.10.2020 00:40 11,6 C 10,0 C 10,0 C 94 % 1000,2 hPa 0,0 l/m 0 min 0 min 0 W/m 0,0 km/h (0 Bft) 100,00 %
02.10.2020 00:42 11,6 C 10,0 C 10,0 C 94 % 1000,2 hPa 0,0 l/m 0 min 0 min 0 W/m 0,0 km/h (0 Bft) 97,92 %
02.10.2020 00:44 11,6 C 10,0 C 10,0 C 94 % 1000,2 hPa 0,0 l/m 0 min 0 min 0 W/m 0,0 km/h (0 Bft) 100,00 %
02.10.2020 00:46 11,6 C 10,0 C 10,0 C 94 % 1000,2 hPa 0,0 l/m 0 min 0 min 0 W/m 0,0 km/h (0 Bft) 100,00 %
02.10.2020 00:48 11,6 C 10,0 C 10,0 C 94 % 1000,1 hPa 0,0 l/m 0 min 0 min 0 W/m 0,0 km/h (0 Bft) 100,00 %
02.10.2020 00:50 11,6 C 10,0 C 10,0 C 94 % 1000,1 hPa 0,0 l/m 0 min 0 min 0 W/m 0,0 km/h (0 Bft) 97,87 %
02.10.2020 00:52 11,6 C 10,0 C 10,0 C 94 % 1000,0 hPa 0,0 l/m 0 min 0 min 0 W/m 0,0 km/h (0 Bft) 100,00 %
02.10.2020 00:54 11,6 C 10,0 C 9,4 C 94 % 1000,1 hPa 0,0 l/m 0 min 0 min 0 W/m 0,0 km/h (0 Bft) 100,00 %
02.10.2020 00:56 11,6 C 10,0 C 9,4 C 94 % 1000,1 hPa 0,0 l/m 0 min 0 min 0 W/m 0,0 km/h (0 Bft) 100,00 %
02.10.2020 00:58 11,6 C 9,4 C 9,4 C 94 % 1000,1 hPa 0,0 l/m 0 min 0 min 0 W/m 0,0 km/h (0 Bft) 100,00 %
02.10.2020 01:00 11,5 C 9,4 C 9,4 C 94 % 1000,0 hPa 0,0 l/m 0 min 0 min 0 W/m 0,0 km/h (0 Bft) 97,92 %
02.10.2020 01:02 11,5 C 9,4 C 9,4 C 94 % 1000,1 hPa 0,0 l/m 0 min 0 min 0 W/m 0,0 km/h (0 Bft) 100,00 %
02.10.2020 01:04 11,5 C 9,4 C 9,4 C 94 % 1000,0 hPa 0,0 l/m 0 min 0 min 0 W/m 0,0 km/h (0 Bft) 100,00 %
02.10.2020 01:06 11,4 C 9,4 C 9,4 C 94 % 1000,0 hPa 0,0 l/m 0 min 0 min 0 W/m 0,0 km/h (0 Bft) 100,00 %
02.10.2020 01:08 11,4 C 9,4 C 9,4 C 94 % 1000,1 hPa 0,0 l/m 0 min 0 min 0 W/m 3,2 km/h (1 Bft) 97,83 %
02.10.2020 01:10 11,4 C 9,4 C 9,4 C 94 % 1000,0 hPa 0,0 l/m 0 min 0 min 0 W/m 0,0 km/h (0 Bft) 97,87 %
02.10.2020 01:12 11,4 C 9,4 C 9,4 C 94 % 1000,0 hPa 0,0 l/m 0 min 0 min 0 W/m 0,0 km/h (0 Bft) 100,00 %
02.10.2020 01:14 11,4 C 9,4 C 9,4 C 94 % 1000,0 hPa 0,0 l/m 0 min 0 min 0 W/m 0,0 km/h (0 Bft) 100,00 %
02.10.2020 01:16 11,3 C 9,4 C 9,4 C 94 % 1000,0 hPa 0,0 l/m 0 min 0 min 0 W/m 0,0 km/h (0 Bft) 100,00 %
02.10.2020 01:18 11,3 C 9,4 C 9,4 C 94 % 1000,0 hPa 0,0 l/m 0 min 0 min 0 W/m 3,2 km/h (1 Bft) 100,00 %
02.10.2020 01:20 11,3 C 9,4 C 9,4 C 94 % 1000,0 hPa 0,0 l/m 0 min 0 min 0 W/m 3,2 km/h (1 Bft) 97,87 %
02.10.2020 01:22 11,2 C 9,4 C 9,4 C 94 % 1000,0 hPa 0,0 l/m 0 min 0 min 0 W/m 0,0 km/h (0 Bft) 97,92 %
02.10.2020 01:24 11,2 C 9,4 C 9,4 C 94 % 1000,0 hPa 0,0 l/m 0 min 0 min 0 W/m 0,0 km/h (0 Bft) 97,92 %
02.10.2020 01:26 11,2 C 9,4 C 9,4 C 94 % 1000,0 hPa 0,0 l/m 0 min 0 min 0 W/m 3,2 km/h (1 Bft) 97,87 %
02.10.2020 01:28 11,2 C 9,4 C 8,9 C 94 % 999,9 hPa 0,0 l/m 0 min 0 min 0 W/m 0,0 km/h (0 Bft) 97,92 %
02.10.2020 01:30 11,1 C 9,4 C 8,9 C 94 % 999,9 hPa 0,0 l/m 0 min 0 min 0 W/m 0,0 km/h (0 Bft) 97,83 %
02.10.2020 01:32 11,1 C 9,4 C 8,9 C 94 % 999,9 hPa 0,0 l/m 0 min 0 min 0 W/m 0,0 km/h (0 Bft) 97,92 %
02.10.2020 01:34 11,1 C 9,4 C 8,9 C 94 % 999,9 hPa 0,0 l/m 0 min 0 min 0 W/m 0,0 km/h (0 Bft) 95,74 %
02.10.2020 01:36 11,1 C 9,4 C 8,9 C 94 % 999,9 hPa 0,0 l/m 0 min 0 min 0 W/m 3,2 km/h (1 Bft) 95,74 %
02.10.2020 01:38 11,1 C 9,4 C 8,9 C 94 % 999,9 hPa 0,0 l/m 0 min 0 min 0 W/m 0,0 km/h (0 Bft) 95,74 %
02.10.2020 01:40 11,0 C 9,4 C 8,9 C 94 % 999,9 hPa 0,0 l/m 0 min 0 min 0 W/m 0,0 km/h (0 Bft) 95,74 %
02.10.2020 01:42 11,0 C 9,4 C 8,9 C 94 % 999,9 hPa 0,0 l/m 0 min 0 min 0 W/m 3,2 km/h (1 Bft) 95,65 %
02.10.2020 01:44 10,9 C 9,4 C 8,9 C 94 % 999,9 hPa 0,0 l/m 0 min 0 min 0 W/m 3,2 km/h (1 Bft) 95,74 %
02.10.2020 01:46 10,9 C 9,4 C 8,9 C 94 % 999,9 hPa 0,0 l/m 0 min 0 min 0 W/m 3,2 km/h (1 Bft) 91,49 %
02.10.2020 01:48 10,9 C 9,4 C 8,9 C 94 % 999,8 hPa 0,0 l/m 0 min 0 min 0 W/m 0,0 km/h (0 Bft) 89,36 %
02.10.2020 01:50 10,9 C 9,4 C 8,9 C 94 % 999,8 hPa 0,0 l/m 0 min 0 min 0 W/m 0,0 km/h (0 Bft) 90,48 %
02.10.2020 01:52 10,9 C 9,4 C 8,9 C 94 % 999,8 hPa 0,0 l/m 0 min 0 min 0 W/m 0,0 km/h (0 Bft) 93,75 %
02.10.2020 01:54 10,8 C 9,4 C 8,9 C 94 % 999,8 hPa 0,0 l/m 0 min 0 min 0 W/m 3,2 km/h (1 Bft) 95,74 %
02.10.2020 01:56 10,8 C 9,4 C 8,9 C 94 % 999,8 hPa 0,0 l/m 0 min 0 min 0 W/m 0,0 km/h (0 Bft) 93,62 %
02.10.2020 01:58 10,8 C 9,4 C 8,9 C 94 % 999,7 hPa 0,0 l/m 0 min 0 min 0 W/m 6,4 km/h (2 Bft) 94,74 %
02.10.2020 02:00 10,8 C 9,4 C 8,9 C 94 % 999,7 hPa 0,0 l/m 0 min 0 min 0 W/m 6,4 km/h (2 Bft) 93,33 %
02.10.2020 02:02 10,7 C 9,4 C 8,9 C 94 % 999,6 hPa 0,0 l/m 0 min 0 min 0 W/m 3,2 km/h (1 Bft) 93,88 %
02.10.2020 02:04 10,7 C 9,4 C 8,9 C 94 % 999,6 hPa 0,0 l/m 0 min 0 min 0 W/m 3,2 km/h (1 Bft) 91,49 %
02.10.2020 02:06 10,7 C 9,4 C 8,9 C 94 % 999,6 hPa 0,0 l/m 0 min 0 min 0 W/m 12,9 km/h (3 Bft) 91,30 %
02.10.2020 02:08 10,7 C 9,4 C 8,9 C 94 % 999,6 hPa 0,0 l/m 0 min 0 min 0 W/m 3,2 km/h (1 Bft) 93,62 %
02.10.2020 02:10 10,7 C 9,4 C 8,9 C 94 % 999,6 hPa 0,0 l/m 0 min 0 min 0 W/m 3,2 km/h (1 Bft) 93,62 %
02.10.2020 02:12 10,7 C 9,4 C 8,9 C 94 % 999,6 hPa 0,0 l/m 0 min 0 min 0 W/m 6,4 km/h (2 Bft) 92,86 %
02.10.2020 02:14 10,7 C 8,9 C 8,9 C 94 % 999,5 hPa 0,0 l/m 0 min 0 min 0 W/m 3,2 km/h (1 Bft) 93,75 %
02.10.2020 02:16 10,7 C 9,4 C 8,9 C 94 % 999,5 hPa 0,0 l/m 0 min 0 min 0 W/m 0,0 km/h (0 Bft) 95,74 %
02.10.2020 02:18 10,6 C 9,4 C 8,9 C 94 % 999,5 hPa 0,0 l/m 0 min 0 min 0 W/m 0,0 km/h (0 Bft) 93,75 %
02.10.2020 02:20 10,6 C 9,4 C 8,9 C 94 % 999,4 hPa 0,0 l/m 0 min 0 min 0 W/m 3,2 km/h (1 Bft) 93,75 %
02.10.2020 02:22 10,6 C 9,4 C 8,9 C 94 % 999,4 hPa 0,0 l/m 0 min 0 min 0 W/m 6,4 km/h (2 Bft) 91,67 %
02.10.2020 02:24 10,6 C 8,9 C 8,9 C 95 % 999,5 hPa 0,0 l/m 0 min 0 min 0 W/m 3,2 km/h (1 Bft) 89,36 %
02.10.2020 02:26 10,6 C 8,9 C 8,9 C 95 % 999,5 hPa 0,0 l/m 0 min 0 min 0 W/m 3,2 km/h (1 Bft) 93,62 %
02.10.2020 02:28 10,6 C 8,9 C 8,9 C 94 % 999,4 hPa 0,0 l/m 0 min 0 min 0 W/m 3,2 km/h (1 Bft) 95,74 %
02.10.2020 02:30 10,6 C 8,9 C 8,9 C 94 % 999,4 hPa 0,0 l/m 0 min 0 min 0 W/m 0,0 km/h (0 Bft) 95,65 %
02.10.2020 02:32 10,6 C 9,4 C 8,9 C 94 % 999,5 hPa 0,0 l/m 0 min 0 min 0 W/m 6,4 km/h (2 Bft) 95,83 %
02.10.2020 02:34 10,6 C 8,9 C 8,9 C 95 % 999,5 hPa 0,2 l/m 0 min 0 min 0 W/m 6,4 km/h (2 Bft) 93,62 %
02.10.2020 02:36 10,5 C 8,9 C 8,9 C 95 % 999,5 hPa 0,0 l/m 0 min 0 min 0 W/m 0,0 km/h (0 Bft) 93,62 %
02.10.2020 02:38 10,5 C 8,9 C 8,9 C 95 % 999,4 hPa 0,0 l/m 0 min 0 min 0 W/m 0,0 km/h (0 Bft) 93,62 %
02.10.2020 02:40 10,5 C 8,9 C 8,9 C 95 % 999,5 hPa 0,0 l/m 0 min 0 min 0 W/m 6,4 km/h (2 Bft) 97,83 %
02.10.2020 02:42 10,4 C 8,9 C 8,9 C 95 % 999,4 hPa 0,0 l/m 0 min 0 min 0 W/m 3,2 km/h (1 Bft) 95,74 %
02.10.2020 02:44 10,4 C 8,9 C 8,9 C 95 % 999,4 hPa 0,0 l/m 0 min 0 min 0 W/m 0,0 km/h (0 Bft) 97,87 %
02.10.2020 02:46 10,4 C 8,9 C 8,9 C 95 % 999,4 hPa 0,0 l/m 0 min 0 min 0 W/m 6,4 km/h (2 Bft) 97,87 %
02.10.2020 02:48 10,4 C 8,9 C 8,9 C 95 % 999,4 hPa 0,0 l/m 0 min 0 min 0 W/m 6,4 km/h (2 Bft) 97,87 %
02.10.2020 02:50 10,3 C 8,9 C 8,9 C 95 % 999,3 hPa 0,0 l/m 0 min 0 min 0 W/m 0,0 km/h (0 Bft) 100,00 %
02.10.2020 02:52 10,3 C 8,9 C 8,3 C 95 % 999,3 hPa 0,0 l/m 0 min 0 min 0 W/m 0,0 km/h (0 Bft) 93,48 %
02.10.2020 02:54 10,3 C 8,9 C 8,9 C 95 % 999,2 hPa 0,0 l/m 0 min 0 min 0 W/m 0,0 km/h (0 Bft) 100,00 %
02.10.2020 02:56 10,3 C 8,3 C 8,9 C 95 % 999,3 hPa 0,0 l/m 0 min 0 min 0 W/m 0,0 km/h (0 Bft) 100,00 %
02.10.2020 02:58 10,3 C 8,3 C 8,9 C 95 % 999,2 hPa 0,0 l/m 0 min 0 min 0 W/m 0,0 km/h (0 Bft) 97,87 %
02.10.2020 03:00 10,3 C 8,3 C 8,3 C 95 % 999,2 hPa 0,0 l/m 0 min 0 min 0 W/m 0,0 km/h (0 Bft) 100,00 %
02.10.2020 03:02 10,2 C 8,3 C 8,3 C 95 % 999,3 hPa 0,0 l/m 0 min 0 min 0 W/m 0,0 km/h (0 Bft) 100,00 %
02.10.2020 03:04 10,2 C 8,3 C 8,3 C 95 % 999,3 hPa 0,0 l/m 0 min 0 min 0 W/m 0,0 km/h (0 Bft) 100,00 %
02.10.2020 03:06 10,2 C 8,9 C 8,3 C 95 % 999,3 hPa 0,0 l/m 0 min 0 min 0 W/m 0,0 km/h (0 Bft) 97,87 %
02.10.2020 03:08 10,1 C 8,9 C 8,3 C 95 % 999,2 hPa 0,0 l/m 0 min 0 min 0 W/m 0,0 km/h (0 Bft) 100,00 %
02.10.2020 03:10 10,1 C 8,9 C 8,3 C 95 % 999,2 hPa 0,0 l/m 0 min 0 min 0 W/m 0,0 km/h (0 Bft) 100,00 %
02.10.2020 03:12 10,1 C 8,9 C 8,3 C 95 % 999,2 hPa 0,0 l/m 0 min 0 min 0 W/m 0,0 km/h (0 Bft) 100,00 %
02.10.2020 03:14 10,1 C 8,9 C 8,3 C 95 % 999,2 hPa 0,0 l/m 0 min 0 min 0 W/m 0,0 km/h (0 Bft) 100,00 %
02.10.2020 03:16 10,1 C 8,9 C 8,3 C 95 % 999,2 hPa 0,0 l/m 0 min 0 min 0 W/m 0,0 km/h (0 Bft) 100,00 %
02.10.2020 03:18 10,1 C 8,9 C 8,3 C 95 % 999,2 hPa 0,0 l/m 0 min 0 min 0 W/m 0,0 km/h (0 Bft) 100,00 %
02.10.2020 03:20 10,0 C 8,9 C 8,3 C 95 % 999,1 hPa 0,0 l/m 0 min 0 min 0 W/m 0,0 km/h (0 Bft) 100,00 %
02.10.2020 03:22 10,0 C 8,9 C 8,3 C 95 % 999,0 hPa 0,0 l/m 0 min 0 min 0 W/m 0,0 km/h (0 Bft) 100,00 %
02.10.2020 03:24 10,0 C 8,9 C 8,3 C 95 % 999,0 hPa 0,0 l/m 0 min 0 min 0 W/m 0,0 km/h (0 Bft) 100,00 %
02.10.2020 03:26 9,9 C 8,9 C 8,3 C 95 % 999,0 hPa 0,0 l/m 0 min 0 min 0 W/m 0,0 km/h (0 Bft) 100,00 %
02.10.2020 03:28 9,9 C 8,9 C 8,3 C 95 % 998,9 hPa 0,0 l/m 0 min 0 min 0 W/m 0,0 km/h (0 Bft) 100,00 %
02.10.2020 03:30 9,9 C 8,9 C 8,3 C 95 % 998,9 hPa 0,0 l/m 0 min 0 min 0 W/m 0,0 km/h (0 Bft) 100,00 %
02.10.2020 03:32 9,9 C 8,9 C 8,3 C 95 % 998,8 hPa 0,0 l/m 0 min 0 min 0 W/m 0,0 km/h (0 Bft) 100,00 %
02.10.2020 03:34 9,9 C 8,9 C 8,3 C 95 % 998,8 hPa 0,0 l/m 0 min 0 min 0 W/m 0,0 km/h (0 Bft) 100,00 %
02.10.2020 03:36 9,8 C 8,9 C 8,3 C 95 % 998,8 hPa 0,0 l/m 0 min 0 min 0 W/m 0,0 km/h (0 Bft) 97,87 %
02.10.2020 03:38 9,8 C 8,9 C 8,3 C 95 % 998,7 hPa 0,0 l/m 0 min 0 min 0 W/m 0,0 km/h (0 Bft) 100,00 %
02.10.2020 03:40 9,8 C 8,3 C 8,3 C 95 % 998,7 hPa 0,0 l/m 0 min 0 min 0 W/m 0,0 km/h (0 Bft) 100,00 %
02.10.2020 03:42 9,8 C 8,3 C 8,3 C 95 % 998,6 hPa 0,0 l/m 0 min 0 min 0 W/m 0,0 km/h (0 Bft) 100,00 %
02.10.2020 03:44 9,8 C 8,3 C 8,3 C 96 % 998,6 hPa 0,0 l/m 0 min 0 min 0 W/m 0,0 km/h (0 Bft) 97,87 %
02.10.2020 03:46 9,8 C 8,3 C 8,3 C 96 % 998,5 hPa 0,0 l/m 0 min 0 min 0 W/m 0,0 km/h (0 Bft) 100,00 %
02.10.2020 03:48 9,7 C 8,3 C 8,3 C 96 % 998,5 hPa 0,0 l/m 0 min 0 min 0 W/m 0,0 km/h (0 Bft) 100,00 %
02.10.2020 03:50 9,7 C 8,3 C 7,8 C 96 % 998,4 hPa 0,0 l/m 0 min 0 min 0 W/m 0,0 km/h (0 Bft) 100,00 %
02.10.2020 03:52 9,7 C 8,3 C 8,3 C 96 % 998,3 hPa 0,0 l/m 0 min 0 min 0 W/m 0,0 km/h (0 Bft) 100,00 %
02.10.2020 03:54 9,7 C 8,3 C 8,3 C 96 % 998,3 hPa 0,0 l/m 0 min 0 min 0 W/m 0,0 km/h (0 Bft) 100,00 %
02.10.2020 03:56 9,7 C 7,8 C 7,8 C 95 % 998,3 hPa 0,0 l/m 0 min 0 min 0 W/m 0,0 km/h (0 Bft) 100,00 %
02.10.2020 03:58 9,6 C 7,8 C 7,8 C 95 % 998,3 hPa 0,0 l/m 0 min 0 min 0 W/m 0,0 km/h (0 Bft) 100,00 %
02.10.2020 04:00 9,6 C 7,8 C 7,8 C 95 % 998,2 hPa 0,0 l/m 0 min 0 min 0 W/m 0,0 km/h (0 Bft) 100,00 %
02.10.2020 04:02 9,6 C 7,8 C 7,8 C 95 % 998,2 hPa 0,0 l/m 0 min 0 min 0 W/m 0,0 km/h (0 Bft) 100,00 %
02.10.2020 04:04 9,6 C 7,8 C 7,8 C 95 % 998,3 hPa 0,0 l/m 0 min 0 min 0 W/m 0,0 km/h (0 Bft) 100,00 %
02.10.2020 04:06 9,6 C 7,8 C 7,8 C 95 % 998,2 hPa 0,0 l/m 0 min 0 min 0 W/m 0,0 km/h (0 Bft) 100,00 %
02.10.2020 04:08 9,5 C 7,8 C 7,8 C 95 % 998,2 hPa 0,0 l/m 0 min 0 min 0 W/m 0,0 km/h (0 Bft) 100,00 %
02.10.2020 04:10 9,4 C 7,8 C 7,8 C 95 % 998,2 hPa 0,0 l/m 0 min 0 min 0 W/m 0,0 km/h (0 Bft) 100,00 %
02.10.2020 04:12 9,4 C 7,8 C 7,8 C 95 % 998,2 hPa 0,0 l/m 0 min 0 min 0 W/m 0,0 km/h (0 Bft) 97,87 %
02.10.2020 04:14 9,4 C 7,8 C 7,8 C 95 % 998,2 hPa 0,0 l/m 0 min 0 min 0 W/m 0,0 km/h (0 Bft) 97,83 %
02.10.2020 04:16 9,3 C 7,8 C 7,8 C 95 % 998,1 hPa 0,0 l/m 0 min 0 min 0 W/m 0,0 km/h (0 Bft) 100,00 %
02.10.2020 04:18 9,3 C 7,8 C 7,8 C 95 % 998,1 hPa 0,0 l/m 0 min 0 min 0 W/m 0,0 km/h (0 Bft) 100,00 %
02.10.2020 04:20 9,3 C 7,8 C 7,8 C 95 % 998,1 hPa 0,0 l/m 0 min 0 min 0 W/m 0,0 km/h (0 Bft) 97,62 %
02.10.2020 04:22 9,3 C 7,8 C 7,8 C 95 % 998,0 hPa 0,0 l/m 0 min 0 min 0 W/m 0,0 km/h (0 Bft) 100,00 %
02.10.2020 04:24 9,2 C 7,8 C 7,8 C 95 % 998,0 hPa 0,0 l/m 0 min 0 min 0 W/m 0,0 km/h (0 Bft) 97,92 %
02.10.2020 04:26 9,2 C 7,8 C 7,8 C 95 % 998,0 hPa 0,0 l/m 0 min 0 min 0 W/m 0,0 km/h (0 Bft) 97,87 %
02.10.2020 04:28 9,2 C 7,8 C 7,8 C 95 % 997,9 hPa 0,0 l/m 0 min 0 min 0 W/m 0,0 km/h (0 Bft) 100,00 %
02.10.2020 04:30 9,1 C 7,8 C 7,8 C 95 % 997,9 hPa 0,0 l/m 0 min 0 min 0 W/m 0,0 km/h (0 Bft) 97,92 %
02.10.2020 04:32 9,1 C 7,8 C 7,8 C 95 % 997,9 hPa 0,0 l/m 0 min 0 min 0 W/m 0,0 km/h (0 Bft) 97,87 %
02.10.2020 04:34 9,1 C 7,8 C 7,8 C 95 % 997,9 hPa 0,0 l/m 0 min 0 min 0 W/m 0,0 km/h (0 Bft) 95,83 %
02.10.2020 04:36 9,1 C 7,8 C 7,8 C 95 % 997,9 hPa 0,0 l/m 0 min 0 min 0 W/m 0,0 km/h (0 Bft) 95,65 %
02.10.2020 04:38 9,1 C 7,8 C 7,8 C 95 % 997,9 hPa 0,0 l/m 0 min 0 min 0 W/m 0,0 km/h (0 Bft) 95,74 %
02.10.2020 04:40 9,1 C 7,8 C 7,8 C 95 % 997,8 hPa 0,0 l/m 0 min 0 min 0 W/m 0,0 km/h (0 Bft) 95,83 %
02.10.2020 04:42 9,0 C 7,8 C 7,8 C 96 % 997,8 hPa 0,0 l/m 0 min 0 min 0 W/m 0,0 km/h (0 Bft) 93,62 %
02.10.2020 04:44 9,0 C 7,8 C 7,8 C 96 % 997,8 hPa 0,0 l/m 0 min 0 min 0 W/m 0,0 km/h (0 Bft) 91,49 %
02.10.2020 04:46 9,0 C 7,8 C 7,8 C 96 % 997,7 hPa 0,0 l/m 0 min 0 min 0 W/m 0,0 km/h (0 Bft) 95,74 %
02.10.2020 04:48 9,0 C 7,8 C 7,8 C 96 % 997,7 hPa 0,0 l/m 0 min 0 min 0 W/m 0,0 km/h (0 Bft) 95,74 %
02.10.2020 04:50 9,0 C 7,8 C 7,8 C 96 % 997,7 hPa 0,0 l/m 0 min 0 min 0 W/m 0,0 km/h (0 Bft) 93,48 %
02.10.2020 04:53 8,9 C 7,2 C 7,2 C 96 % 997,7 hPa 0,0 l/m 0 min 0 min 0 W/m 0,0 km/h (0 Bft) 95,77 %
02.10.2020 04:54 8,9 C 7,2 C 7,2 C 96 % 997,7 hPa 0,0 l/m 0 min 0 min 0 W/m 0,0 km/h (0 Bft) 95,65 %
02.10.2020 04:56 8,9 C 7,2 C 7,2 C 96 % 997,7 hPa 0,0 l/m 0 min 0 min 0 W/m 0,0 km/h (0 Bft) 95,24 %
02.10.2020 04:58 8,9 C 7,2 C 7,2 C 96 % 997,7 hPa 0,0 l/m 0 min 0 min 0 W/m 0,0 km/h (0 Bft) 95,74 %
02.10.2020 05:00 8,9 C 7,2 C 7,8 C 96 % 997,7 hPa 0,0 l/m 0 min 0 min 0 W/m 0,0 km/h (0 Bft) 95,74 %
02.10.2020 05:02 8,8 C 7,2 C 7,8 C 96 % 997,6 hPa 0,0 l/m 0 min 0 min 0 W/m 0,0 km/h (0 Bft) 93,88 %
02.10.2020 05:04 8,8 C 7,2 C 7,8 C 96 % 997,6 hPa 0,0 l/m 0 min 0 min 0 W/m 0,0 km/h (0 Bft) 95,74 %
02.10.2020 05:06 8,8 C 7,8 C 7,8 C 96 % 997,6 hPa 0,0 l/m 0 min 0 min 0 W/m 0,0 km/h (0 Bft) 95,74 %
02.10.2020 05:08 8,8 C 7,8 C 7,8 C 96 % 997,6 hPa 0,0 l/m 0 min 0 min 0 W/m 0,0 km/h (0 Bft) 95,83 %
02.10.2020 05:10 8,8 C 7,8 C 7,8 C 96 % 997,6 hPa 0,0 l/m 0 min 0 min 0 W/m 0,0 km/h (0 Bft) 97,87 %
02.10.2020 05:12 8,8 C 7,8 C 7,8 C 96 % 997,6 hPa 0,0 l/m 0 min 0 min 0 W/m 0,0 km/h (0 Bft) 97,87 %
02.10.2020 05:14 8,8 C 7,8 C 7,8 C 96 % 997,6 hPa 0,0 l/m 0 min 0 min 0 W/m 0,0 km/h (0 Bft) 97,87 %
02.10.2020 05:16 8,8 C 7,8 C 7,8 C 96 % 997,6 hPa 0,0 l/m 0 min 0 min 0 W/m 0,0 km/h (0 Bft) 95,74 %
02.10.2020 05:18 8,8 C 7,8 C 7,8 C 96 % 997,6 hPa 0,0 l/m 0 min 0 min 0 W/m 0,0 km/h (0 Bft) 97,87 %
02.10.2020 05:20 8,7 C 7,8 C 7,8 C 96 % 997,5 hPa 0,0 l/m 0 min 0 min 0 W/m 12,9 km/h (3 Bft) 97,87 %
02.10.2020 05:22 8,8 C 7,8 C 7,8 C 96 % 997,5 hPa 0,0 l/m 0 min 0 min 0 W/m 3,2 km/h (1 Bft) 97,87 %
02.10.2020 05:24 8,7 C 7,8 C 7,8 C 96 % 997,5 hPa 0,0 l/m 0 min 0 min 0 W/m 6,4 km/h (2 Bft) 97,83 %
02.10.2020 05:26 8,8 C 7,8 C 7,8 C 96 % 997,4 hPa 0,0 l/m 0 min 0 min 0 W/m 3,2 km/h (1 Bft) 97,87 %
02.10.2020 05:28 8,8 C 7,8 C 7,8 C 96 % 997,5 hPa 0,0 l/m 0 min 0 min 0 W/m 3,2 km/h (1 Bft) 95,24 %
02.10.2020 05:30 8,8 C 7,8 C 7,8 C 96 % 997,5 hPa 0,0 l/m 0 min 0 min 0 W/m 0,0 km/h (0 Bft) 97,87 %
02.10.2020 05:32 8,8 C 7,8 C 7,8 C 96 % 997,5 hPa 0,0 l/m 0 min 0 min 0 W/m 3,2 km/h (1 Bft) 100,00 %
02.10.2020 05:34 8,8 C 7,8 C 7,8 C 96 % 997,5 hPa 0,0 l/m 0 min 0 min 0 W/m 3,2 km/h (1 Bft) 100,00 %
02.10.2020 05:36 8,8 C 7,8 C 7,8 C 96 % 997,4 hPa 0,0 l/m 0 min 0 min 0 W/m 0,0 km/h (0 Bft) 100,00 %
02.10.2020 05:38 8,8 C 7,8 C 7,8 C 96 % 997,4 hPa 0,0 l/m 0 min 0 min 0 W/m 0,0 km/h (0 Bft) 100,00 %
02.10.2020 05:40 8,8 C 7,8 C 7,8 C 96 % 997,4 hPa 0,0 l/m 0 min 0 min 0 W/m 0,0 km/h (0 Bft) 100,00 %
02.10.2020 05:42 8,8 C 7,8 C 7,8 C 96 % 997,4 hPa 0,0 l/m 0 min 0 min 0 W/m 0,0 km/h (0 Bft) 97,87 %
02.10.2020 05:44 8,8 C 7,8 C 7,8 C 96 % 997,4 hPa 0,0 l/m 0 min 0 min 0 W/m 0,0 km/h (0 Bft) 100,00 %
02.10.2020 05:46 8,8 C 7,8 C 7,8 C 96 % 997,4 hPa 0,0 l/m 0 min 0 min 0 W/m 3,2 km/h (1 Bft) 100,00 %
02.10.2020 05:48 8,8 C 7,8 C 7,8 C 96 % 997,4 hPa 0,0 l/m 0 min 0 min 0 W/m 0,0 km/h (0 Bft) 100,00 %
02.10.2020 05:50 8,8 C 7,8 C 7,8 C 96 % 997,4 hPa 0,0 l/m 0 min 0 min 0 W/m 0,0 km/h (0 Bft) 100,00 %
02.10.2020 05:52 8,8 C 7,2 C 7,8 C 96 % 997,4 hPa 0,0 l/m 0 min 0 min 0 W/m 0,0 km/h (0 Bft) 97,87 %
02.10.2020 05:54 8,8 C 7,2 C 7,2 C 96 % 997,4 hPa 0,0 l/m 0 min 0 min 0 W/m 0,0 km/h (0 Bft) 100,00 %
02.10.2020 05:56 8,8 C 7,8 C 7,2 C 96 % 997,4 hPa 0,0 l/m 0 min 0 min 0 W/m 0,0 km/h (0 Bft) 100,00 %
02.10.2020 05:58 8,8 C 7,8 C 7,2 C 96 % 997,4 hPa 0,0 l/m 0 min 0 min 0 W/m 0,0 km/h (0 Bft) 100,00 %
02.10.2020 06:00 8,8 C 7,2 C 7,2 C 96 % 997,4 hPa 0,0 l/m 0 min 0 min 0 W/m 0,0 km/h (0 Bft) 100,00 %
02.10.2020 06:02 8,8 C 7,2 C 7,2 C 96 % 997,4 hPa 0,0 l/m 0 min 0 min 0 W/m 0,0 km/h (0 Bft) 97,87 %
02.10.2020 06:04 8,8 C 7,2 C 7,2 C 96 % 997,4 hPa 0,0 l/m 0 min 0 min 0 W/m 0,0 km/h (0 Bft) 100,00 %
02.10.2020 06:08 8,7 C 7,2 C 7,2 C 96 % 997,4 hPa 0,0 l/m 0 min 0 min 0 W/m 0,0 km/h (0 Bft) 100,00 %
02.10.2020 06:10 8,7 C 7,2 C 7,2 C 96 % 997,4 hPa 0,0 l/m 0 min 0 min 0 W/m 0,0 km/h (0 Bft) 100,00 %
02.10.2020 06:12 8,7 C 7,2 C 7,2 C 97 % 997,3 hPa 0,0 l/m 0 min 0 min 0 W/m 0,0 km/h (0 Bft) 100,00 %
02.10.2020 06:14 8,7 C 7,2 C 7,2 C 97 % 997,3 hPa 0,0 l/m 0 min 0 min 0 W/m 0,0 km/h (0 Bft) 100,00 %
02.10.2020 06:16 8,7 C 7,2 C 7,2 C 97 % 997,2 hPa 0,0 l/m 0 min 0 min 0 W/m 0,0 km/h (0 Bft) 100,00 %
02.10.2020 06:18 8,7 C 7,2 C 7,2 C 97 % 997,2 hPa 0,0 l/m 0 min 0 min 0 W/m 0,0 km/h (0 Bft) 100,00 %
02.10.2020 06:20 8,7 C 7,2 C 7,2 C 97 % 997,2 hPa 0,0 l/m 0 min 0 min 0 W/m 0,0 km/h (0 Bft) 100,00 %
02.10.2020 06:22 8,7 C 7,2 C 7,2 C 97 % 997,1 hPa 0,0 l/m 0 min 0 min 0 W/m 0,0 km/h (0 Bft) 100,00 %
02.10.2020 06:24 8,7 C 7,2 C 7,2 C 97 % 997,1 hPa 0,0 l/m 0 min 0 min 0 W/m 0,0 km/h (0 Bft) 100,00 %
02.10.2020 06:26 8,6 C 7,2 C 7,2 C 97 % 997,1 hPa 0,0 l/m 0 min 0 min 0 W/m 0,0 km/h (0 Bft) 100,00 %
02.10.2020 06:28 8,6 C 7,2 C 7,2 C 97 % 997,0 hPa 0,0 l/m 0 min 0 min 0 W/m 0,0 km/h (0 Bft) 100,00 %
02.10.2020 06:30 8,6 C 7,2 C 7,2 C 97 % 997,0 hPa 0,0 l/m 0 min 0 min 0 W/m 0,0 km/h (0 Bft) 100,00 %
02.10.2020 06:32 8,6 C 7,2 C 7,2 C 97 % 997,0 hPa 0,0 l/m 0 min 0 min 0 W/m 0,0 km/h (0 Bft) 100,00 %
02.10.2020 06:34 8,6 C 7,2 C 7,2 C 97 % 996,9 hPa 0,0 l/m 0 min 0 min 0 W/m 0,0 km/h (0 Bft) 100,00 %
02.10.2020 06:36 8,6 C 7,8 C 7,2 C 97 % 997,0 hPa 0,0 l/m 0 min 0 min 0 W/m 0,0 km/h (0 Bft) 100,00 %
02.10.2020 06:38 8,6 C 7,8 C 7,8 C 97 % 997,0 hPa 0,0 l/m 0 min 0 min 0 W/m 0,0 km/h (0 Bft) 100,00 %
02.10.2020 06:40 8,6 C 7,8 C 7,8 C 97 % 996,9 hPa 0,0 l/m 0 min 0 min 0 W/m 0,0 km/h (0 Bft) 100,00 %
02.10.2020 06:42 8,7 C 8,3 C 7,8 C 97 % 996,9 hPa 0,0 l/m 0 min 0 min 0 W/m 3,2 km/h (1 Bft) 95,74 %
02.10.2020 06:44 8,7 C 7,8 C 7,8 C 97 % 996,9 hPa 0,0 l/m 0 min 0 min 0 W/m 0,0 km/h (0 Bft) 95,83 %
02.10.2020 06:46 8,8 C 8,3 C 8,3 C 97 % 996,9 hPa 0,0 l/m 0 min 0 min 0 W/m 0,0 km/h (0 Bft) 100,00 %
02.10.2020 06:48 8,8 C 8,3 C 8,3 C 97 % 996,9 hPa 0,0 l/m 0 min 0 min 0 W/m 6,4 km/h (2 Bft) 97,92 %
02.10.2020 06:50 8,9 C 8,3 C 8,3 C 97 % 996,9 hPa 0,0 l/m 0 min 0 min 0 W/m 3,2 km/h (1 Bft) 100,00 %
02.10.2020 06:52 8,9 C 8,3 C 8,3 C 97 % 996,9 hPa 0,0 l/m 0 min 0 min 0 W/m 0,0 km/h (0 Bft) 97,96 %
02.10.2020 06:54 8,9 C 8,3 C 8,3 C 97 % 996,9 hPa 0,0 l/m 0 min 0 min 0 W/m 6,4 km/h (2 Bft) 100,00 %
02.10.2020 06:56 9,0 C 8,3 C 8,3 C 98 % 996,8 hPa 0,0 l/m 0 min 0 min 0 W/m 12,9 km/h (3 Bft) 95,74 %
02.10.2020 06:58 9,1 C 8,3 C 8,3 C 98 % 996,7 hPa 0,0 l/m 0 min 0 min 0 W/m 3,2 km/h (1 Bft) 100,00 %
02.10.2020 07:00 9,1 C 8,3 C 8,3 C 98 % 996,7 hPa 0,0 l/m 0 min 0 min 0 W/m 6,4 km/h (2 Bft) 95,74 %
02.10.2020 07:02 9,1 C 8,3 C 8,3 C 98 % 996,6 hPa 0,0 l/m 0 min 0 min 0 W/m 0,0 km/h (0 Bft) 95,74 %
02.10.2020 07:04 9,1 C 8,3 C 8,3 C 98 % 996,5 hPa 0,0 l/m 0 min 0 min 0 W/m 0,0 km/h (0 Bft) 97,67 %
02.10.2020 07:06 9,2 C 8,3 C 8,3 C 98 % 996,5 hPa 0,0 l/m 0 min 0 min 0 W/m 0,0 km/h (0 Bft) 97,92 %
02.10.2020 07:08 9,2 C 8,3 C 8,3 C 98 % 996,6 hPa 0,0 l/m 0 min 0 min 0 W/m 0,0 km/h (0 Bft) 97,87 %
02.10.2020 07:10 9,1 C 8,3 C 8,3 C 98 % 996,6 hPa 0,0 l/m 0 min 0 min 0 W/m 0,0 km/h (0 Bft) 97,92 %
02.10.2020 07:12 9,1 C 7,8 C 8,3 C 98 % 996,5 hPa 0,0 l/m 0 min 0 min 0 W/m 0,0 km/h (0 Bft) 97,92 %
02.10.2020 07:14 9,1 C 7,8 C 8,3 C 98 % 996,5 hPa 0,0 l/m 0 min 0 min 0 W/m 0,0 km/h (0 Bft) 97,87 %
02.10.2020 07:16 9,1 C 7,8 C 8,3 C 98 % 996,4 hPa 0,0 l/m 0 min 0 min 0 W/m 0,0 km/h (0 Bft) 97,87 %
02.10.2020 07:18 9,1 C 7,8 C 8,3 C 98 % 996,4 hPa 0,0 l/m 0 min 0 min 0 W/m 0,0 km/h (0 Bft) 97,87 %
02.10.2020 07:20 9,1 C 7,8 C 8,3 C 98 % 996,4 hPa 0,0 l/m 0 min 0 min 0 W/m 0,0 km/h (0 Bft) 97,87 %
02.10.2020 07:22 9,1 C 7,8 C 8,3 C 98 % 996,4 hPa 0,0 l/m 0 min 0 min 0 W/m 0,0 km/h (0 Bft) 95,65 %
02.10.2020 07:24 9,1 C 7,8 C 7,8 C 98 % 996,3 hPa 0,0 l/m 0 min 0 min 0 W/m 0,0 km/h (0 Bft) 95,74 %
02.10.2020 07:26 9,1 C 7,8 C 7,8 C 98 % 996,4 hPa 0,0 l/m 0 min 0 min 0 W/m 0,0 km/h (0 Bft) 95,24 %
02.10.2020 07:28 9,1 C 7,8 C 7,8 C 98 % 996,4 hPa 0,0 l/m 0 min 0 min 0 W/m 0,0 km/h (0 Bft) 97,92 %
02.10.2020 07:30 9,1 C 7,8 C 8,3 C 98 % 996,4 hPa 0,0 l/m 0 min 0 min 0 W/m 0,0 km/h (0 Bft) 95,83 %
02.10.2020 07:32 9,1 C 8,3 C 8,3 C 98 % 996,4 hPa 0,0 l/m 0 min 0 min 0 W/m 0,0 km/h (0 Bft) 91,67 %
02.10.2020 07:34 9,1 C 8,3 C 8,3 C 98 % 996,3 hPa 0,0 l/m 0 min 0 min 0 W/m 0,0 km/h (0 Bft) 93,75 %
02.10.2020 07:36 9,0 C 8,3 C 8,3 C 98 % 996,3 hPa 0,0 l/m 0 min 0 min 0 W/m 0,0 km/h (0 Bft) 91,67 %
02.10.2020 07:38 9,0 C 8,3 C 8,3 C 98 % 996,3 hPa 0,0 l/m 0 min 0 min 0 W/m 0,0 km/h (0 Bft) 93,62 %
02.10.2020 07:40 9,0 C 8,3 C 8,3 C 98 % 996,2 hPa 0,0 l/m 0 min 0 min 0 W/m 0,0 km/h (0 Bft) 91,49 %
02.10.2020 07:42 9,1 C 8,3 C 8,3 C 98 % 996,1 hPa 0,0 l/m 0 min 0 min 0 W/m 3,2 km/h (1 Bft) 93,62 %
02.10.2020 07:44 9,0 C 8,3 C 8,3 C 98 % 996,1 hPa 0,0 l/m 0 min 0 min 0 W/m 0,0 km/h (0 Bft) 93,48 %
02.10.2020 07:46 9,1 C 8,3 C 8,3 C 98 % 996,1 hPa 0,0 l/m 0 min 0 min 4 W/m 0,0 km/h (0 Bft) 95,74 %
02.10.2020 07:48 9,1 C 8,3 C 8,3 C 98 % 996,1 hPa 0,0 l/m 0 min 0 min 5 W/m 6,4 km/h (2 Bft) 93,62 %
02.10.2020 07:50 9,1 C 8,3 C 8,3 C 98 % 996,2 hPa 0,0 l/m 0 min 0 min 6 W/m 3,2 km/h (1 Bft) 95,24 %
02.10.2020 07:52 9,1 C 8,3 C 8,3 C 98 % 996,3 hPa 0,0 l/m 0 min 0 min 7 W/m 0,0 km/h (0 Bft) 95,83 %
02.10.2020 07:54 9,1 C 8,9 C 8,3 C 98 % 996,3 hPa 0,0 l/m 0 min 0 min 7 W/m 6,4 km/h (2 Bft) 95,83 %
02.10.2020 07:56 9,1 C 8,9 C 8,3 C 98 % 996,3 hPa 0,0 l/m 0 min 0 min 9 W/m 0,0 km/h (0 Bft) 89,36 %
02.10.2020 07:58 9,2 C 8,9 C 8,3 C 98 % 996,3 hPa 0,0 l/m 0 min 0 min 9 W/m 0,0 km/h (0 Bft) 95,92 %
02.10.2020 08:00 9,2 C 8,9 C 8,9 C 98 % 996,2 hPa 0,0 l/m 0 min 0 min 11 W/m 0,0 km/h (0 Bft) 95,74 %
02.10.2020 08:02 9,2 C 8,9 C 8,9 C 98 % 996,3 hPa 0,0 l/m 0 min 0 min 11 W/m 0,0 km/h (0 Bft) 93,62 %
02.10.2020 08:04 9,2 C 8,9 C 8,9 C 98 % 996,3 hPa 0,0 l/m 0 min 0 min 12 W/m 0,0 km/h (0 Bft) 95,35 %
02.10.2020 08:06 9,3 C 8,9 C 8,9 C 98 % 996,2 hPa 0,0 l/m 0 min 0 min 13 W/m 0,0 km/h (0 Bft) 93,75 %
02.10.2020 08:08 9,3 C 8,9 C 8,9 C 98 % 996,2 hPa 0,0 l/m 0 min 0 min 15 W/m 0,0 km/h (0 Bft) 93,62 %
02.10.2020 08:10 9,3 C 8,9 C 8,9 C 98 % 996,1 hPa 0,0 l/m 0 min 0 min 18 W/m 0,0 km/h (0 Bft) 95,83 %
02.10.2020 08:12 9,3 C 8,9 C 8,9 C 98 % 996,0 hPa 0,0 l/m 0 min 0 min 19 W/m 0,0 km/h (0 Bft) 93,75 %
02.10.2020 08:14 9,3 C 8,9 C 8,9 C 98 % 996,0 hPa 0,0 l/m 0 min 0 min 20 W/m 0,0 km/h (0 Bft) 93,62 %
02.10.2020 08:16 9,3 C 9,4 C 8,9 C 98 % 996,0 hPa 0,0 l/m 0 min 0 min 21 W/m 0,0 km/h (0 Bft) 97,87 %
02.10.2020 08:18 9,4 C 9,4 C 8,9 C 98 % 996,0 hPa 0,0 l/m 0 min 0 min 24 W/m 0,0 km/h (0 Bft) 97,87 %
02.10.2020 08:20 9,4 C 9,4 C 8,9 C 98 % 996,0 hPa 0,0 l/m 0 min 0 min 26 W/m 0,0 km/h (0 Bft) 97,83 %
02.10.2020 08:22 9,4 C 9,4 C 8,9 C 98 % 996,0 hPa 0,0 l/m 0 min 0 min 29 W/m 3,2 km/h (1 Bft) 97,87 %
02.10.2020 08:24 9,4 C 9,4 C 8,9 C 98 % 996,0 hPa 0,0 l/m 0 min 0 min 31 W/m 0,0 km/h (0 Bft) 95,74 %
02.10.2020 08:26 9,5 C 9,4 C 8,9 C 98 % 996,0 hPa 0,0 l/m 0 min 0 min 34 W/m 0,0 km/h (0 Bft) 95,24 %
02.10.2020 08:28 9,5 C 9,4 C 8,9 C 98 % 995,9 hPa 0,0 l/m 0 min 0 min 37 W/m 0,0 km/h (0 Bft) 97,92 %
02.10.2020 08:30 9,6 C 9,4 C 8,9 C 98 % 996,0 hPa 0,0 l/m 0 min 0 min 41 W/m 0,0 km/h (0 Bft) 97,87 %
02.10.2020 08:32 9,6 C 9,4 C 8,9 C 99 % 996,0 hPa 0,0 l/m 0 min 0 min 44 W/m 0,0 km/h (0 Bft) 97,92 %
02.10.2020 08:34 9,6 C 10,0 C 8,9 C 99 % 995,9 hPa 0,0 l/m 0 min 0 min 48 W/m 0,0 km/h (0 Bft) 97,92 %
02.10.2020 08:36 9,6 C 10,0 C 9,4 C 99 % 995,9 hPa 0,0 l/m 0 min 0 min 52 W/m 0,0 km/h (0 Bft) 95,83 %
02.10.2020 08:38 9,6 C 10,0 C 9,4 C 99 % 995,9 hPa 0,0 l/m 0 min 0 min 60 W/m 0,0 km/h (0 Bft) 97,87 %
02.10.2020 08:40 9,7 C 10,0 C 9,4 C 99 % 996,0 hPa 0,0 l/m 0 min 0 min 67 W/m 3,2 km/h (1 Bft) 95,74 %
02.10.2020 08:42 9,7 C 10,6 C 9,4 C 99 % 996,0 hPa 0,0 l/m 0 min 0 min 73 W/m 0,0 km/h (0 Bft) 93,48 %
02.10.2020 08:44 9,8 C 10,6 C 9,4 C 99 % 996,0 hPa 0,0 l/m 0 min 0 min 77 W/m 0,0 km/h (0 Bft) 97,87 %
02.10.2020 08:46 9,8 C 10,6 C 9,4 C 99 % 995,9 hPa 0,0 l/m 0 min 0 min 82 W/m 0,0 km/h (0 Bft) 97,87 %
02.10.2020 08:48 9,9 C 10,6 C 9,4 C 99 % 995,9 hPa 0,0 l/m 0 min 0 min 84 W/m 0,0 km/h (0 Bft) 95,74 %
02.10.2020 08:50 9,9 C 10,6 C 9,4 C 99 % 995,8 hPa 0,0 l/m 2 min 0 min 89 W/m 0,0 km/h (0 Bft) 97,62 %
02.10.2020 08:52 10,0 C 11,1 C 10,0 C 99 % 995,9 hPa 0,0 l/m 2 min 0 min 91 W/m 3,2 km/h (1 Bft) 97,92 %
02.10.2020 08:54 10,1 C 11,1 C 10,0 C 99 % 995,9 hPa 0,0 l/m 2 min 0 min 94 W/m 0,0 km/h (0 Bft) 97,87 %
02.10.2020 08:55 10,1 C 11,1 C 10,0 C 99 % 995,8 hPa 0,0 l/m 0 min 0 min 93 W/m 3,2 km/h (1 Bft) 100,00 %
02.10.2020 08:58 10,1 C 11,1 C 10,0 C 99 % 995,8 hPa 0,0 l/m 0 min 0 min 91 W/m 0,0 km/h (0 Bft) 100,00 %
02.10.2020 09:00 10,2 C 11,1 C 10,0 C 99 % 995,8 hPa 0,0 l/m 0 min 0 min 91 W/m 3,2 km/h (1 Bft) 100,00 %
02.10.2020 09:02 10,2 C 11,1 C 10,0 C 99 % 995,7 hPa 0,0 l/m 0 min 0 min 93 W/m 0,0 km/h (0 Bft) 100,00 %
02.10.2020 09:04 10,2 C 11,1 C 10,0 C 99 % 995,7 hPa 0,0 l/m 0 min 0 min 90 W/m 0,0 km/h (0 Bft) 98,00 %
02.10.2020 09:06 10,3 C 11,1 C 10,0 C 99 % 995,7 hPa 0,0 l/m 0 min 0 min 89 W/m 0,0 km/h (0 Bft) 100,00 %
02.10.2020 09:08 10,3 C 11,1 C 10,0 C 99 % 995,7 hPa 0,0 l/m 0 min 0 min 90 W/m 0,0 km/h (0 Bft) 100,00 %
02.10.2020 09:10 10,3 C 11,1 C 10,0 C 99 % 995,7 hPa 0,0 l/m 0 min 0 min 88 W/m 3,2 km/h (1 Bft) 100,00 %
02.10.2020 09:12 10,3 C 11,1 C 10,0 C 99 % 995,6 hPa 0,0 l/m 0 min 0 min 85 W/m 0,0 km/h (0 Bft) 100,00 %
02.10.2020 09:14 10,4 C 11,1 C 10,0 C 99 % 995,6 hPa 0,0 l/m 0 min 0 min 84 W/m 0,0 km/h (0 Bft) 97,62 %
02.10.2020 09:16 10,4 C 11,1 C 10,0 C 99 % 995,6 hPa 0,0 l/m 0 min 0 min 88 W/m 0,0 km/h (0 Bft) 100,00 %
02.10.2020 09:18 10,4 C 11,7 C 10,0 C 99 % 995,6 hPa 0,0 l/m 0 min 0 min 96 W/m 0,0 km/h (0 Bft) 100,00 %
02.10.2020 09:20 10,5 C 11,7 C 10,0 C 99 % 995,6 hPa 0,0 l/m 0 min 0 min 97 W/m 0,0 km/h (0 Bft) 100,00 %
02.10.2020 09:22 10,5 C 11,7 C 10,0 C 99 % 995,5 hPa 0,0 l/m 0 min 0 min 94 W/m 0,0 km/h (0 Bft) 100,00 %
02.10.2020 09:24 10,6 C 11,7 C 10,0 C 99 % 995,4 hPa 0,0 l/m 0 min 0 min 96 W/m 0,0 km/h (0 Bft) 100,00 %
02.10.2020 09:26 10,6 C 11,7 C 10,0 C 99 % 995,5 hPa 0,0 l/m 0 min 0 min 97 W/m 0,0 km/h (0 Bft) 100,00 %
02.10.2020 09:28 10,6 C 11,7 C 10,0 C 99 % 995,4 hPa 0,0 l/m 0 min 0 min 99 W/m 3,2 km/h (1 Bft) 97,87 %
02.10.2020 09:30 10,6 C 11,7 C 10,0 C 99 % 995,4 hPa 0,0 l/m 0 min 0 min 100 W/m 0,0 km/h (0 Bft) 97,92 %
02.10.2020 09:32 10,7 C 11,7 C 10,0 C 99 % 995,4 hPa 0,0 l/m 0 min 0 min 103 W/m 3,2 km/h (1 Bft) 100,00 %
02.10.2020 09:34 10,7 C 11,7 C 10,0 C 99 % 995,4 hPa 0,0 l/m 0 min 0 min 105 W/m 0,0 km/h (0 Bft) 100,00 %
02.10.2020 09:36 10,7 C 11,7 C 10,0 C 99 % 995,4 hPa 0,0 l/m 0 min 0 min 106 W/m 0,0 km/h (0 Bft) 100,00 %
02.10.2020 09:38 10,8 C 11,7 C 10,0 C 99 % 995,4 hPa 0,0 l/m 0 min 0 min 115 W/m 0,0 km/h (0 Bft) 97,87 %
02.10.2020 09:40 10,8 C 12,2 C 10,0 C 99 % 995,4 hPa 0,0 l/m 0 min 0 min 131 W/m 0,0 km/h (0 Bft) 100,00 %
02.10.2020 09:42 10,8 C 12,2 C 10,6 C 99 % 995,4 hPa 0,0 l/m 2 min 0 min 166 W/m 0,0 km/h (0 Bft) 100,00 %
02.10.2020 09:44 10,9 C 12,8 C 10,6 C 99 % 995,4 hPa 0,0 l/m 2 min 0 min 158 W/m 3,2 km/h (1 Bft) 97,87 %
02.10.2020 09:46 10,9 C 13,9 C 10,6 C 99 % 995,4 hPa 0,0 l/m 2 min 0 min 206 W/m 3,2 km/h (1 Bft) 95,92 %
02.10.2020 09:48 11,0 C 15,0 C 10,6 C 99 % 995,4 hPa 0,0 l/m 2 min 0 min 301 W/m 9,7 km/h (2 Bft) 97,87 %
02.10.2020 09:50 11,1 C 14,4 C 10,6 C 99 % 995,4 hPa 0,0 l/m 2 min 0 min 188 W/m 0,0 km/h (0 Bft) 97,92 %
02.10.2020 09:52 11,1 C 13,9 C 10,6 C 99 % 995,3 hPa 0,0 l/m 2 min 0 min 214 W/m 6,4 km/h (2 Bft) 97,87 %
02.10.2020 09:54 11,2 C 13,9 C 10,6 C 99 % 995,3 hPa 0,0 l/m 2 min 0 min 168 W/m 0,0 km/h (0 Bft) 97,83 %
02.10.2020 09:56 11,2 C 14,4 C 10,6 C 99 % 995,2 hPa 0,0 l/m 2 min 0 min 208 W/m 0,0 km/h (0 Bft) 97,87 %
02.10.2020 09:58 11,3 C 15,0 C 10,6 C 99 % 995,3 hPa 0,0 l/m 2 min 0 min 264 W/m 0,0 km/h (0 Bft) 97,62 %
02.10.2020 10:00 11,3 C 15,0 C 10,6 C 99 % 995,3 hPa 0,0 l/m 2 min 0 min 244 W/m 0,0 km/h (0 Bft) 95,83 %
02.10.2020 10:02 11,3 C 15,6 C 10,6 C 99 % 995,3 hPa 0,0 l/m 2 min 0 min 253 W/m 0,0 km/h (0 Bft) 94,74 %
02.10.2020 10:04 11,4 C 16,1 C 10,6 C 99 % 995,3 hPa 0,0 l/m 2 min 0 min 302 W/m 0,0 km/h (0 Bft) 95,92 %
02.10.2020 10:06 11,5 C 16,7 C 10,6 C 99 % 995,3 hPa 0,0 l/m 2 min 0 min 305 W/m 0,0 km/h (0 Bft) 95,83 %
02.10.2020 10:08 11,6 C 16,1 C 10,6 C 99 % 995,3 hPa 0,0 l/m 2 min 0 min 286 W/m 9,7 km/h (2 Bft) 95,74 %
02.10.2020 10:10 11,6 C 16,1 C 10,6 C 99 % 995,4 hPa 0,0 l/m 2 min 0 min 317 W/m 9,7 km/h (2 Bft) 95,92 %
02.10.2020 10:12 11,6 C 16,1 C 11,1 C 99 % 995,3 hPa 0,0 l/m 2 min 0 min 296 W/m 0,0 km/h (0 Bft) 93,75 %
02.10.2020 10:14 11,7 C 16,1 C 11,1 C 99 % 995,3 hPa 0,0 l/m 2 min 0 min 278 W/m 0,0 km/h (0 Bft) 95,74 %
02.10.2020 10:16 11,8 C 15,6 C 11,1 C 99 % 995,2 hPa 0,0 l/m 2 min 0 min 186 W/m 0,0 km/h (0 Bft) 93,75 %
02.10.2020 10:18 11,8 C 14,4 C 11,1 C 99 % 995,3 hPa 0,0 l/m 0 min 0 min 136 W/m 0,0 km/h (0 Bft) 95,83 %
02.10.2020 10:20 11,9 C 13,9 C 10,6 C 99 % 995,3 hPa 0,0 l/m 0 min 0 min 117 W/m 0,0 km/h (0 Bft) 97,22 %
02.10.2020 10:22 11,9 C 13,3 C 10,6 C 98 % 995,2 hPa 0,0 l/m 0 min 0 min 116 W/m 9,7 km/h (2 Bft) 93,75 %
02.10.2020 10:24 12,0 C 13,3 C 11,1 C 98 % 995,2 hPa 0,0 l/m 0 min 0 min 119 W/m 0,0 km/h (0 Bft) 95,83 %
02.10.2020 10:26 12,0 C 13,3 C 11,1 C 98 % 995,2 hPa 0,0 l/m 0 min 0 min 120 W/m 9,7 km/h (2 Bft) 93,75 %
02.10.2020 10:28 12,1 C 12,8 C 11,1 C 98 % 995,3 hPa 0,0 l/m 0 min 0 min 117 W/m 12,9 km/h (3 Bft) 95,74 %
02.10.2020 10:30 12,1 C 12,8 C 11,1 C 98 % 995,3 hPa 0,0 l/m 0 min 0 min 117 W/m 9,7 km/h (2 Bft) 95,83 %
02.10.2020 10:32 12,1 C 13,3 C 11,1 C 98 % 995,3 hPa 0,0 l/m 0 min 0 min 122 W/m 3,2 km/h (1 Bft) 93,88 %
02.10.2020 10:34 12,1 C 13,3 C 11,1 C 98 % 995,3 hPa 0,0 l/m 0 min 0 min 127 W/m 6,4 km/h (2 Bft) 95,83 %
02.10.2020 10:36 12,1 C 13,3 C 11,1 C 97 % 995,3 hPa 0,0 l/m 0 min 0 min 132 W/m 3,2 km/h (1 Bft) 95,83 %
02.10.2020 10:38 12,2 C 13,3 C 11,1 C 97 % 995,3 hPa 0,0 l/m 0 min 0 min 138 W/m 0,0 km/h (0 Bft) 95,74 %
02.10.2020 10:40 12,2 C 13,3 C 11,1 C 97 % 995,3 hPa 0,0 l/m 0 min 0 min 141 W/m 0,0 km/h (0 Bft) 93,75 %
02.10.2020 10:42 12,2 C 13,3 C 11,1 C 97 % 995,2 hPa 0,0 l/m 0 min 0 min 143 W/m 9,7 km/h (2 Bft) 97,92 %
02.10.2020 10:44 12,3 C 13,9 C 11,1 C 96 % 995,2 hPa 0,0 l/m 0 min 0 min 148 W/m 0,0 km/h (0 Bft) 95,83 %
02.10.2020 10:46 12,3 C 13,9 C 11,1 C 96 % 995,2 hPa 0,0 l/m 0 min 0 min 158 W/m 0,0 km/h (0 Bft) 95,83 %
02.10.2020 10:48 12,4 C 13,9 C 11,1 C 96 % 995,1 hPa 0,0 l/m 0 min 0 min 175 W/m 3,2 km/h (1 Bft) 97,87 %
02.10.2020 10:50 12,5 C 14,4 C 11,7 C 96 % 995,0 hPa 0,0 l/m 0 min 0 min 184 W/m 0,0 km/h (0 Bft) 100,00 %
02.10.2020 10:53 12,6 C 14,4 C 11,7 C 95 % 995,0 hPa 0,0 l/m 0 min 0 min 208 W/m 0,0 km/h (0 Bft) 98,59 %
02.10.2020 10:54 12,6 C 14,4 C 11,7 C 95 % 995,0 hPa 0,0 l/m 1 min 0 min 257 W/m 0,0 km/h (0 Bft) 100,00 %
02.10.2020 10:56 12,7 C 14,4 C 11,7 C 95 % 995,0 hPa 0,0 l/m 0 min 0 min 214 W/m 3,2 km/h (1 Bft) 100,00 %
02.10.2020 10:58 12,7 C 14,4 C 11,7 C 95 % 994,9 hPa 0,0 l/m 0 min 0 min 198 W/m 3,2 km/h (1 Bft) 100,00 %
02.10.2020 11:00 12,8 C 14,4 C 11,7 C 95 % 994,9 hPa 0,0 l/m 0 min 0 min 185 W/m 0,0 km/h (0 Bft) 100,00 %
02.10.2020 11:02 12,8 C 14,4 C 11,7 C 94 % 994,8 hPa 0,0 l/m 0 min 0 min 170 W/m 0,0 km/h (0 Bft) 97,37 %
02.10.2020 11:04 12,9 C 14,4 C 11,7 C 94 % 994,9 hPa 0,0 l/m 0 min 0 min 171 W/m 3,2 km/h (1 Bft) 97,87 %
02.10.2020 11:06 13,0 C 14,4 C 11,7 C 94 % 994,8 hPa 0,0 l/m 0 min 0 min 187 W/m 16,1 km/h (3 Bft) 98,31 %
02.10.2020 11:08 13,1 C 14,4 C 11,7 C 93 % 994,8 hPa 0,0 l/m 0 min 0 min 213 W/m 9,7 km/h (2 Bft) 97,22 %
02.10.2020 11:10 13,2 C 15,0 C 12,2 C 93 % 994,8 hPa 0,0 l/m 2 min 0 min 237 W/m 3,2 km/h (1 Bft) 98,31 %
02.10.2020 11:12 13,2 C 15,0 C 12,2 C 93 % 994,9 hPa 0,0 l/m 2 min 0 min 258 W/m 0,0 km/h (0 Bft) 97,87 %
02.10.2020 11:14 13,3 C 15,6 C 12,2 C 92 % 994,9 hPa 0,0 l/m 2 min 0 min 273 W/m 0,0 km/h (0 Bft) 97,83 %
02.10.2020 11:16 13,4 C 15,6 C 12,2 C 92 % 994,9 hPa 0,0 l/m 2 min 0 min 268 W/m 12,9 km/h (3 Bft) 95,74 %
02.10.2020 11:18 13,4 C 15,6 C 12,2 C 92 % 994,9 hPa 0,0 l/m 2 min 0 min 251 W/m 6,4 km/h (2 Bft) 97,87 %
02.10.2020 11:20 13,6 C 15,6 C 12,2 C 91 % 994,9 hPa 0,0 l/m 2 min 0 min 248 W/m 12,9 km/h (3 Bft) 97,87 %
02.10.2020 11:22 13,6 C 15,6 C 12,2 C 91 % 994,9 hPa 0,0 l/m 0 min 0 min 222 W/m 12,9 km/h (3 Bft) 97,62 %
02.10.2020 11:24 13,7 C 15,6 C 12,2 C 91 % 994,9 hPa 0,0 l/m 0 min 0 min 190 W/m 12,9 km/h (3 Bft) 97,87 %
02.10.2020 11:26 13,8 C 15,6 C 12,8 C 90 % 994,8 hPa 0,0 l/m 0 min 0 min 188 W/m 3,2 km/h (1 Bft) 97,92 %
02.10.2020 11:28 13,8 C 15,6 C 12,8 C 90 % 994,8 hPa 0,0 l/m 0 min 0 min 202 W/m 16,1 km/h (3 Bft) 97,92 %
02.10.2020 11:30 13,9 C 16,7 C 13,3 C 89 % 994,8 hPa 0,0 l/m 0 min 0 min 233 W/m 12,9 km/h (3 Bft) 97,92 %
02.10.2020 11:32 14,1 C 18,3 C 13,3 C 89 % 994,8 hPa 0,0 l/m 2 min 0 min 423 W/m 12,9 km/h (3 Bft) 97,92 %
02.10.2020 11:34 14,2 C 18,3 C 13,9 C 89 % 994,7 hPa 0,0 l/m 2 min 0 min 494 W/m 19,3 km/h (3 Bft) 97,87 %
02.10.2020 11:36 14,3 C 18,3 C 13,9 C 89 % 994,8 hPa 0,0 l/m 2 min 0 min 304 W/m 12,9 km/h (3 Bft) 97,87 %
02.10.2020 11:38 14,3 C 17,8 C 13,9 C 88 % 994,8 hPa 0,0 l/m 2 min 0 min 293 W/m 22,5 km/h (4 Bft) 97,83 %
02.10.2020 11:40 14,4 C 18,3 C 13,9 C 88 % 994,7 hPa 0,0 l/m 2 min 0 min 369 W/m 12,9 km/h (3 Bft) 97,87 %
02.10.2020 11:42 14,6 C 18,9 C 13,9 C 88 % 994,7 hPa 0,0 l/m 2 min 0 min 479 W/m 16,1 km/h (3 Bft) 93,62 %
02.10.2020 11:44 14,7 C 18,9 C 14,4 C 87 % 994,8 hPa 0,0 l/m 2 min 0 min 472 W/m 22,5 km/h (4 Bft) 97,87 %
02.10.2020 11:46 14,8 C 18,9 C 14,4 C 86 % 994,8 hPa 0,0 l/m 2 min 0 min 462 W/m 22,5 km/h (4 Bft) 100,00 %
02.10.2020 11:48 15,0 C 18,3 C 14,4 C 86 % 994,7 hPa 0,0 l/m 2 min 0 min 404 W/m 25,7 km/h (4 Bft) 100,00 %
02.10.2020 11:50 15,1 C 17,8 C 14,4 C 85 % 994,7 hPa 0,0 l/m 2 min 0 min 357 W/m 29,0 km/h (5 Bft) 97,92 %
02.10.2020 11:52 15,2 C 17,2 C 14,4 C 85 % 994,7 hPa 0,0 l/m 2 min 0 min 346 W/m 16,1 km/h (3 Bft) 100,00 %
02.10.2020 11:54 15,2 C 16,7 C 14,4 C 84 % 994,6 hPa 0,0 l/m 2 min 0 min 284 W/m 25,7 km/h (4 Bft) 100,00 %
02.10.2020 11:56 15,3 C 16,7 C 14,4 C 84 % 994,5 hPa 0,0 l/m 2 min 0 min 291 W/m 19,3 km/h (3 Bft) 100,00 %
02.10.2020 11:58 15,3 C 16,7 C 14,4 C 84 % 994,5 hPa 0,0 l/m 2 min 0 min 290 W/m 16,1 km/h (3 Bft) 100,00 %
02.10.2020 12:00 15,4 C 17,2 C 14,4 C 84 % 994,4 hPa 0,0 l/m 2 min 0 min 317 W/m 6,4 km/h (2 Bft) 97,83 %
02.10.2020 12:02 15,4 C 17,8 C 14,4 C 84 % 994,3 hPa 0,0 l/m 2 min 0 min 454 W/m 22,5 km/h (4 Bft) 94,59 %
02.10.2020 12:04 15,5 C 18,3 C 14,4 C 84 % 994,2 hPa 0,0 l/m 2 min 0 min 493 W/m 16,1 km/h (3 Bft) 100,00 %
02.10.2020 12:07 15,6 C 18,9 C 14,4 C 84 % 994,1 hPa 0,0 l/m 3 min 0 min 540 W/m 12,9 km/h (3 Bft) 100,00 %
02.10.2020 12:08 15,7 C 18,3 C 14,4 C 84 % 994,1 hPa 0,0 l/m 1 min 0 min 383 W/m 0,0 km/h (0 Bft) 100,00 %
02.10.2020 12:10 15,7 C 17,2 C 14,4 C 84 % 994,1 hPa 0,0 l/m 0 min 0 min 266 W/m 9,7 km/h (2 Bft) 100,00 %
02.10.2020 12:12 15,7 C 17,2 C 14,4 C 84 % 994,1 hPa 0,0 l/m 0 min 0 min 266 W/m 16,1 km/h (3 Bft) 97,87 %
02.10.2020 12:14 15,7 C 16,7 C 13,9 C 83 % 994,1 hPa 0,0 l/m 2 min 0 min 303 W/m 22,5 km/h (4 Bft) 100,00 %
02.10.2020 12:16 15,7 C 16,7 C 13,9 C 83 % 994,0 hPa 0,0 l/m 2 min 0 min 308 W/m 12,9 km/h (3 Bft) 100,00 %
02.10.2020 12:18 15,8 C 16,7 C 13,9 C 83 % 993,9 hPa 0,0 l/m 0 min 0 min 251 W/m 3,2 km/h (1 Bft) 97,92 %
02.10.2020 12:20 15,8 C 16,7 C 14,4 C 83 % 994,0 hPa 0,0 l/m 0 min 0 min 246 W/m 16,1 km/h (3 Bft) 97,87 %
02.10.2020 12:22 15,8 C 16,7 C 14,4 C 83 % 993,9 hPa 0,0 l/m 0 min 0 min 241 W/m 12,9 km/h (3 Bft) 97,87 %
02.10.2020 12:24 15,8 C 16,1 C 14,4 C 83 % 993,9 hPa 0,0 l/m 0 min 0 min 246 W/m 16,1 km/h (3 Bft) 97,87 %
02.10.2020 12:26 15,8 C 16,7 C 13,9 C 83 % 993,9 hPa 0,0 l/m 2 min 0 min 274 W/m 12,9 km/h (3 Bft) 97,83 %
02.10.2020 12:28 15,8 C 16,7 C 13,9 C 83 % 993,8 hPa 0,0 l/m 2 min 0 min 297 W/m 12,9 km/h (3 Bft) 97,87 %
02.10.2020 12:30 15,8 C 17,2 C 13,9 C 83 % 993,7 hPa 0,0 l/m 2 min 0 min 278 W/m 6,4 km/h (2 Bft) 97,87 %
02.10.2020 12:32 15,8 C 17,2 C 13,9 C 83 % 993,7 hPa 0,0 l/m 0 min 0 min 265 W/m 0,0 km/h (0 Bft) 95,83 %
02.10.2020 12:34 15,8 C 16,7 C 13,9 C 83 % 993,7 hPa 0,0 l/m 0 min 0 min 217 W/m 12,9 km/h (3 Bft) 97,62 %
02.10.2020 12:36 15,8 C 16,7 C 13,9 C 83 % 993,6 hPa 0,0 l/m 0 min 0 min 259 W/m 16,1 km/h (3 Bft) 95,74 %
02.10.2020 12:38 15,8 C 17,8 C 13,9 C 83 % 993,7 hPa 0,0 l/m 2 min 0 min 323 W/m 16,1 km/h (3 Bft) 97,92 %
02.10.2020 12:40 15,8 C 17,2 C 14,4 C 84 % 993,6 hPa 0,0 l/m 0 min 0 min 252 W/m 12,9 km/h (3 Bft) 97,92 %
02.10.2020 12:42 15,8 C 17,2 C 14,4 C 84 % 993,6 hPa 0,0 l/m 0 min 0 min 270 W/m 29,0 km/h (5 Bft) 97,92 %
02.10.2020 12:44 15,9 C 17,2 C 14,4 C 83 % 993,6 hPa 0,0 l/m 0 min 0 min 240 W/m 12,9 km/h (3 Bft) 97,92 %
02.10.2020 12:46 15,9 C 16,7 C 14,4 C 83 % 993,6 hPa 0,0 l/m 0 min 0 min 201 W/m 9,7 km/h (2 Bft) 97,87 %
02.10.2020 12:48 15,9 C 16,7 C 14,4 C 83 % 993,5 hPa 0,0 l/m 0 min 0 min 198 W/m 12,9 km/h (3 Bft) 95,74 %
02.10.2020 12:50 15,9 C 16,7 C 14,4 C 82 % 993,6 hPa 0,0 l/m 0 min 0 min 214 W/m 9,7 km/h (2 Bft) 97,83 %
02.10.2020 12:52 15,9 C 16,7 C 14,4 C 82 % 993,6 hPa 0,0 l/m 0 min 0 min 220 W/m 22,5 km/h (4 Bft) 97,87 %
02.10.2020 12:54 15,9 C 16,7 C 14,4 C 82 % 993,5 hPa 0,0 l/m 0 min 0 min 231 W/m 16,1 km/h (3 Bft) 97,87 %
02.10.2020 12:56 15,9 C 16,7 C 14,4 C 83 % 993,6 hPa 0,0 l/m 0 min 0 min 224 W/m 12,9 km/h (3 Bft) 95,74 %
02.10.2020 12:58 16,0 C 16,7 C 15,0 C 83 % 993,6 hPa 0,0 l/m 0 min 0 min 210 W/m 16,1 km/h (3 Bft) 97,67 %
02.10.2020 13:00 16,0 C 16,7 C 15,0 C 83 % 993,6 hPa 0,0 l/m 0 min 0 min 205 W/m 22,5 km/h (4 Bft) 97,92 %
02.10.2020 13:02 16,1 C 16,7 C 15,0 C 82 % 993,7 hPa 0,0 l/m 0 min 0 min 195 W/m 6,4 km/h (2 Bft) 96,00 %
02.10.2020 13:04 16,1 C 16,7 C 15,0 C 82 % 993,6 hPa 0,0 l/m 0 min 0 min 181 W/m 16,1 km/h (3 Bft) 97,87 %
02.10.2020 13:06 16,1 C 16,7 C 15,0 C 82 % 993,7 hPa 0,0 l/m 0 min 0 min 174 W/m 19,3 km/h (3 Bft) 100,00 %
02.10.2020 13:08 16,1 C 16,7 C 15,0 C 82 % 993,6 hPa 0,0 l/m 0 min 0 min 169 W/m 3,2 km/h (1 Bft) 100,00 %
02.10.2020 13:10 16,1 C 16,7 C 15,0 C 82 % 993,6 hPa 0,0 l/m 0 min 0 min 165 W/m 0,0 km/h (0 Bft) 95,74 %
02.10.2020 13:12 16,2 C 16,7 C 15,0 C 82 % 993,6 hPa 0,0 l/m 0 min 0 min 160 W/m 3,2 km/h (1 Bft) 97,56 %
02.10.2020 13:14 16,2 C 16,1 C 15,0 C 82 % 993,6 hPa 0,0 l/m 0 min 0 min 138 W/m 19,3 km/h (3 Bft) 100,00 %
02.10.2020 13:16 16,2 C 16,1 C 15,0 C 82 % 993,6 hPa 0,0 l/m 0 min 0 min 109 W/m 6,4 km/h (2 Bft) 97,92 %
02.10.2020 13:18 16,2 C 16,1 C 14,4 C 82 % 993,6 hPa 0,0 l/m 0 min 0 min 99 W/m 12,9 km/h (3 Bft) 97,92 %
02.10.2020 13:20 16,2 C 15,6 C 14,4 C 82 % 993,6 hPa 0,0 l/m 0 min 0 min 95 W/m 12,9 km/h (3 Bft) 95,74 %
02.10.2020 13:22 16,2 C 15,6 C 14,4 C 82 % 993,6 hPa 0,0 l/m 0 min 0 min 90 W/m 16,1 km/h (3 Bft) 95,83 %
02.10.2020 13:24 16,2 C 15,6 C 14,4 C 82 % 993,5 hPa 0,0 l/m 0 min 0 min 88 W/m 12,9 km/h (3 Bft) 97,87 %
02.10.2020 13:26 16,2 C 15,6 C 14,4 C 82 % 993,6 hPa 0,0 l/m 0 min 0 min 84 W/m 3,2 km/h (1 Bft) 95,74 %
02.10.2020 13:28 16,2 C 15,6 C 14,4 C 82 % 993,6 hPa 0,0 l/m 0 min 0 min 81 W/m 19,3 km/h (3 Bft) 95,74 %
02.10.2020 13:30 16,2 C 15,6 C 14,4 C 82 % 993,5 hPa 0,0 l/m 0 min 0 min 75 W/m 19,3 km/h (3 Bft) 95,74 %
02.10.2020 13:32 16,2 C 15,6 C 14,4 C 82 % 993,5 hPa 0,0 l/m 0 min 0 min 77 W/m 12,9 km/h (3 Bft) 95,74 %
02.10.2020 13:34 16,2 C 15,6 C 14,4 C 82 % 993,4 hPa 0,0 l/m 0 min 0 min 90 W/m 0,0 km/h (0 Bft) 95,74 %
02.10.2020 13:36 16,2 C 15,6 C 14,4 C 82 % 993,4 hPa 0,0 l/m 0 min 0 min 102 W/m 16,1 km/h (3 Bft) 95,12 %
02.10.2020 13:38 16,2 C 15,6 C 14,4 C 82 % 993,4 hPa 0,0 l/m 0 min 0 min 107 W/m 0,0 km/h (0 Bft) 95,83 %
02.10.2020 13:40 16,2 C 16,1 C 14,4 C 82 % 993,4 hPa 0,0 l/m 0 min 0 min 114 W/m 3,2 km/h (1 Bft) 95,83 %
02.10.2020 13:42 16,1 C 16,1 C 14,4 C 82 % 993,4 hPa 0,0 l/m 0 min 0 min 118 W/m 0,0 km/h (0 Bft) 95,92 %
02.10.2020 13:44 16,1 C 16,1 C 14,4 C 82 % 993,4 hPa 0,0 l/m 0 min 0 min 108 W/m 0,0 km/h (0 Bft) 95,65 %
02.10.2020 13:46 16,1 C 16,1 C 14,4 C 82 % 993,4 hPa 0,0 l/m 0 min 0 min 95 W/m 0,0 km/h (0 Bft) 95,83 %
02.10.2020 13:48 16,1 C 15,6 C 14,4 C 82 % 993,4 hPa 0,0 l/m 0 min 0 min 76 W/m 12,9 km/h (3 Bft) 93,62 %
02.10.2020 13:50 16,1 C 15,6 C 14,4 C 82 % 993,4 hPa 0,0 l/m 0 min 0 min 70 W/m 6,4 km/h (2 Bft) 95,74 %
02.10.2020 13:52 16,1 C 16,1 C 14,4 C 82 % 993,4 hPa 0,0 l/m 0 min 0 min 80 W/m 12,9 km/h (3 Bft) 95,74 %
02.10.2020 13:54 16,1 C 16,1 C 14,4 C 82 % 993,4 hPa 0,0 l/m 0 min 0 min 99 W/m 6,4 km/h (2 Bft) 93,62 %
02.10.2020 13:56 16,1 C 16,1 C 14,4 C 82 % 993,4 hPa 0,0 l/m 0 min 0 min 124 W/m 0,0 km/h (0 Bft) 95,74 %
02.10.2020 13:58 16,1 C 16,7 C 14,4 C 82 % 993,3 hPa 0,0 l/m 0 min 0 min 178 W/m 0,0 km/h (0 Bft) 95,24 %
02.10.2020 14:00 16,1 C 17,2 C 14,4 C 82 % 993,3 hPa 0,0 l/m 0 min 0 min 225 W/m 0,0 km/h (0 Bft) 93,75 %
02.10.2020 14:02 16,2 C 17,8 C 14,4 C 82 % 993,2 hPa 0,0 l/m 0 min 0 min 249 W/m 0,0 km/h (0 Bft) 96,00 %
02.10.2020 14:04 16,2 C 17,8 C 15,0 C 83 % 993,2 hPa 0,0 l/m 0 min 0 min 238 W/m 0,0 km/h (0 Bft) 95,83 %
02.10.2020 14:06 16,2 C 17,8 C 15,0 C 83 % 993,2 hPa 0,0 l/m 0 min 0 min 211 W/m 0,0 km/h (0 Bft) 97,87 %
02.10.2020 14:08 16,3 C 17,8 C 15,0 C 83 % 993,1 hPa 0,0 l/m 0 min 0 min 184 W/m 0,0 km/h (0 Bft) 95,74 %
02.10.2020 14:10 16,3 C 17,8 C 15,0 C 83 % 993,1 hPa 0,0 l/m 0 min 0 min 165 W/m 0,0 km/h (0 Bft) 97,83 %
02.10.2020 14:12 16,3 C 17,2 C 15,0 C 83 % 993,1 hPa 0,0 l/m 0 min 0 min 160 W/m 0,0 km/h (0 Bft) 95,74 %
02.10.2020 14:14 16,4 C 17,2 C 15,0 C 84 % 993,1 hPa 0,0 l/m 0 min 0 min 158 W/m 0,0 km/h (0 Bft) 97,87 %
02.10.2020 14:16 16,4 C 17,2 C 15,0 C 84 % 993,0 hPa 0,0 l/m 0 min 0 min 152 W/m 0,0 km/h (0 Bft) 97,62 %
02.10.2020 14:18 16,4 C 17,2 C 15,0 C 84 % 993,0 hPa 0,0 l/m 0 min 0 min 150 W/m 0,0 km/h (0 Bft) 97,87 %
02.10.2020 14:20 16,5 C 17,2 C 15,0 C 84 % 993,0 hPa 0,0 l/m 0 min 0 min 152 W/m 0,0 km/h (0 Bft) 97,92 %
02.10.2020 14:22 16,6 C 17,2 C 15,0 C 84 % 992,9 hPa 0,0 l/m 0 min 0 min 156 W/m 0,0 km/h (0 Bft) 95,92 %
02.10.2020 14:24 16,6 C 17,2 C 15,0 C 84 % 992,8 hPa 0,0 l/m 0 min 0 min 167 W/m 0,0 km/h (0 Bft) 97,87 %
02.10.2020 14:26 16,6 C 17,8 C 15,0 C 84 % 992,7 hPa 0,0 l/m 0 min 0 min 213 W/m 0,0 km/h (0 Bft) 95,83 %
02.10.2020 14:28 16,7 C 18,3 C 15,6 C 84 % 992,7 hPa 0,0 l/m 2 min 0 min 285 W/m 3,2 km/h (1 Bft) 95,74 %
02.10.2020 14:30 16,7 C 19,4 C 15,6 C 84 % 992,6 hPa 0,0 l/m 2 min 0 min 359 W/m 3,2 km/h (1 Bft) 100,00 %
02.10.2020 14:32 16,8 C 20,0 C 16,1 C 84 % 992,6 hPa 0,0 l/m 2 min 0 min 403 W/m 0,0 km/h (0 Bft) 95,83 %
02.10.2020 14:34 16,8 C 19,4 C 16,1 C 84 % 992,6 hPa 0,0 l/m 2 min 0 min 296 W/m 3,2 km/h (1 Bft) 100,00 %
02.10.2020 14:36 16,9 C 19,4 C 16,1 C 84 % 992,6 hPa 0,0 l/m 0 min 0 min 257 W/m 0,0 km/h (0 Bft) 100,00 %
02.10.2020 14:38 17,0 C 18,9 C 16,1 C 84 % 992,5 hPa 0,0 l/m 0 min 0 min 221 W/m 0,0 km/h (0 Bft) 100,00 %
02.10.2020 14:40 17,1 C 18,9 C 16,1 C 83 % 992,6 hPa 0,0 l/m 0 min 0 min 216 W/m 9,7 km/h (2 Bft) 100,00 %
02.10.2020 14:42 17,1 C 19,4 C 16,1 C 82 % 992,5 hPa 0,0 l/m 2 min 0 min 287 W/m 0,0 km/h (0 Bft) 100,00 %
02.10.2020 14:44 17,2 C 20,0 C 16,1 C 82 % 992,5 hPa 0,0 l/m 2 min 0 min 290 W/m 0,0 km/h (0 Bft) 100,00 %
02.10.2020 14:46 17,2 C 20,6 C 16,1 C 82 % 992,5 hPa 0,0 l/m 2 min 0 min 359 W/m 3,2 km/h (1 Bft) 100,00 %
02.10.2020 14:48 17,3 C 21,1 C 16,7 C 82 % 992,5 hPa 0,0 l/m 2 min 0 min 388 W/m 6,4 km/h (2 Bft) 97,92 %
02.10.2020 14:50 17,4 C 21,1 C 16,7 C 82 % 992,5 hPa 0,0 l/m 2 min 0 min 415 W/m 6,4 km/h (2 Bft) 95,83 %
02.10.2020 14:52 17,5 C 21,1 C 16,7 C 82 % 992,5 hPa 0,0 l/m 2 min 0 min 359 W/m 0,0 km/h (0 Bft) 97,87 %
02.10.2020 14:54 17,6 C 21,1 C 16,7 C 81 % 992,5 hPa 0,0 l/m 2 min 0 min 317 W/m 0,0 km/h (0 Bft) 97,92 %
02.10.2020 14:56 17,7 C 21,7 C 16,7 C 81 % 992,5 hPa 0,0 l/m 2 min 0 min 352 W/m 0,0 km/h (0 Bft) 97,83 %
02.10.2020 14:58 17,8 C 21,1 C 16,7 C 81 % 992,4 hPa 0,0 l/m 2 min 0 min 315 W/m 3,2 km/h (1 Bft) 97,87 %
02.10.2020 15:00 17,9 C 21,1 C 16,7 C 81 % 992,4 hPa 0,0 l/m 2 min 0 min 271 W/m 6,4 km/h (2 Bft) 97,87 %
02.10.2020 15:02 18,0 C 20,6 C 16,7 C 81 % 992,4 hPa 0,0 l/m 2 min 0 min 304 W/m 0,0 km/h (0 Bft) 95,45 %
02.10.2020 15:04 18,1 C 21,1 C 16,7 C 81 % 992,3 hPa 0,0 l/m 2 min 0 min 324 W/m 3,2 km/h (1 Bft) 97,96 %
02.10.2020 15:06 18,2 C 21,1 C 16,7 C 80 % 992,3 hPa 0,0 l/m 2 min 0 min 317 W/m 6,4 km/h (2 Bft) 95,83 %
02.10.2020 15:08 18,2 C 20,6 C 16,7 C 80 % 992,3 hPa 0,0 l/m 2 min 0 min 258 W/m 0,0 km/h (0 Bft) 97,87 %
02.10.2020 15:10 18,3 C 20,0 C 16,7 C 80 % 992,3 hPa 0,0 l/m 0 min 0 min 160 W/m 6,4 km/h (2 Bft) 97,87 %
02.10.2020 15:12 18,4 C 18,9 C 16,1 C 80 % 992,3 hPa 0,0 l/m 0 min 0 min 143 W/m 6,4 km/h (2 Bft) 97,87 %
02.10.2020 15:14 18,4 C 18,9 C 16,1 C 80 % 992,2 hPa 0,0 l/m 0 min 0 min 157 W/m 6,4 km/h (2 Bft) 97,87 %
02.10.2020 15:16 18,4 C 18,9 C 16,1 C 80 % 992,2 hPa 0,0 l/m 0 min 0 min 146 W/m 3,2 km/h (1 Bft) 97,87 %
02.10.2020 15:18 18,4 C 18,3 C 16,1 C 80 % 992,2 hPa 0,0 l/m 0 min 0 min 133 W/m 3,2 km/h (1 Bft) 97,87 %
02.10.2020 15:20 18,4 C 18,3 C 16,1 C 81 % 992,2 hPa 0,0 l/m 0 min 0 min 121 W/m 0,0 km/h (0 Bft) 97,56 %
02.10.2020 15:22 18,5 C 17,8 C 16,1 C 81 % 992,1 hPa 0,0 l/m 0 min 0 min 128 W/m 9,7 km/h (2 Bft) 97,96 %
02.10.2020 15:24 18,4 C 17,8 C 15,6 C 81 % 992,0 hPa 0,0 l/m 0 min 0 min 144 W/m 6,4 km/h (2 Bft) 95,83 %
02.10.2020 15:26 18,4 C 17,8 C 15,6 C 81 % 992,0 hPa 0,0 l/m 0 min 0 min 150 W/m 3,2 km/h (1 Bft) 100,00 %
02.10.2020 15:28 18,4 C 17,8 C 16,1 C 81 % 991,9 hPa 0,0 l/m 0 min 0 min 142 W/m 0,0 km/h (0 Bft) 100,00 %
02.10.2020 15:30 18,4 C 17,8 C 16,1 C 81 % 992,0 hPa 0,0 l/m 0 min 0 min 136 W/m 6,4 km/h (2 Bft) 100,00 %
02.10.2020 15:32 18,4 C 17,8 C 16,1 C 81 % 992,0 hPa 0,0 l/m 0 min 0 min 135 W/m 6,4 km/h (2 Bft) 97,87 %
02.10.2020 15:34 18,4 C 17,8 C 16,1 C 81 % 992,0 hPa 0,0 l/m 0 min 0 min 135 W/m 3,2 km/h (1 Bft) 97,87 %
02.10.2020 15:36 18,4 C 17,8 C 16,1 C 81 % 992,0 hPa 0,0 l/m 0 min 0 min 134 W/m 0,0 km/h (0 Bft) 100,00 %
02.10.2020 15:38 18,3 C 17,8 C 15,6 C 82 % 992,0 hPa 0,0 l/m 0 min 0 min 135 W/m 0,0 km/h (0 Bft) 97,92 %
02.10.2020 15:40 18,3 C 17,8 C 15,6 C 82 % 992,0 hPa 0,0 l/m 0 min 0 min 138 W/m 0,0 km/h (0 Bft) 97,87 %
02.10.2020 15:42 18,3 C 17,8 C 15,6 C 82 % 992,0 hPa 0,0 l/m 0 min 0 min 141 W/m 0,0 km/h (0 Bft) 97,92 %
02.10.2020 15:44 18,2 C 17,8 C 15,6 C 82 % 991,9 hPa 0,0 l/m 0 min 0 min 147 W/m 0,0 km/h (0 Bft) 97,87 %
02.10.2020 15:46 18,2 C 17,8 C 15,6 C 82 % 992,0 hPa 0,0 l/m 0 min 0 min 149 W/m 0,0 km/h (0 Bft) 97,87 %
02.10.2020 15:48 18,2 C 17,8 C 15,6 C 82 % 991,9 hPa 0,0 l/m 0 min 0 min 148 W/m 0,0 km/h (0 Bft) 97,87 %
02.10.2020 15:50 18,2 C 17,8 C 15,6 C 82 % 991,9 hPa 0,0 l/m 0 min 0 min 148 W/m 0,0 km/h (0 Bft) 97,87 %
02.10.2020 15:52 18,2 C 17,8 C 15,6 C 83 % 991,9 hPa 0,0 l/m 0 min 0 min 145 W/m 0,0 km/h (0 Bft) 93,62 %
02.10.2020 15:54 18,1 C 17,8 C 15,6 C 83 % 991,8 hPa 0,0 l/m 0 min 0 min 141 W/m 0,0 km/h (0 Bft) 97,87 %
02.10.2020 15:56 18,1 C 17,8 C 15,6 C 83 % 991,8 hPa 0,0 l/m 0 min 0 min 137 W/m 6,4 km/h (2 Bft) 97,56 %
02.10.2020 15:58 18,1 C 17,8 C 15,6 C 82 % 991,7 hPa 0,0 l/m 0 min 0 min 134 W/m 3,2 km/h (1 Bft) 94,00 %
02.10.2020 16:00 18,1 C 17,8 C 15,6 C 83 % 991,6 hPa 0,0 l/m 0 min 0 min 131 W/m 0,0 km/h (0 Bft) 97,92 %
02.10.2020 16:02 18,1 C 17,8 C 15,6 C 83 % 991,6 hPa 0,0 l/m 0 min 0 min 127 W/m 3,2 km/h (1 Bft) 97,96 %
02.10.2020 16:04 18,0 C 17,8 C 15,6 C 83 % 991,5 hPa 0,0 l/m 0 min 0 min 123 W/m 6,4 km/h (2 Bft) 97,87 %
02.10.2020 16:06 18,0 C 17,2 C 15,6 C 83 % 991,5 hPa 0,0 l/m 0 min 0 min 124 W/m 3,2 km/h (1 Bft) 95,74 %
02.10.2020 16:08 17,9 C 17,2 C 15,6 C 83 % 991,4 hPa 0,0 l/m 0 min 0 min 126 W/m 6,4 km/h (2 Bft) 97,83 %
02.10.2020 16:10 17,9 C 17,2 C 15,6 C 83 % 991,4 hPa 0,0 l/m 0 min 0 min 126 W/m 6,4 km/h (2 Bft) 97,62 %
02.10.2020 16:12 17,9 C 17,2 C 15,6 C 83 % 991,3 hPa 0,0 l/m 0 min 0 min 124 W/m 3,2 km/h (1 Bft) 95,83 %
02.10.2020 16:14 17,9 C 17,2 C 15,6 C 83 % 991,3 hPa 0,0 l/m 0 min 0 min 120 W/m 3,2 km/h (1 Bft) 97,92 %
02.10.2020 16:16 17,8 C 17,2 C 15,6 C 83 % 991,2 hPa 0,0 l/m 0 min 0 min 116 W/m 3,2 km/h (1 Bft) 95,74 %
02.10.2020 16:18 17,8 C 17,2 C 15,6 C 83 % 991,1 hPa 0,0 l/m 0 min 0 min 113 W/m 0,0 km/h (0 Bft) 100,00 %
02.10.2020 16:20 17,8 C 17,2 C 15,6 C 83 % 991,1 hPa 0,0 l/m 0 min 0 min 110 W/m 0,0 km/h (0 Bft) 95,83 %
02.10.2020 16:22 17,7 C 17,2 C 15,6 C 83 % 991,1 hPa 0,0 l/m 0 min 0 min 106 W/m 3,2 km/h (1 Bft) 97,87 %
02.10.2020 16:24 17,7 C 17,2 C 15,6 C 83 % 991,0 hPa 0,0 l/m 0 min 0 min 105 W/m 6,4 km/h (2 Bft) 100,00 %
02.10.2020 16:26 17,7 C 17,2 C 15,6 C 83 % 990,9 hPa 0,0 l/m 0 min 0 min 104 W/m 0,0 km/h (0 Bft) 97,87 %
02.10.2020 16:28 17,7 C 17,2 C 15,6 C 83 % 990,9 hPa 0,0 l/m 0 min 0 min 104 W/m 3,2 km/h (1 Bft) 100,00 %
02.10.2020 16:30 17,7 C 17,2 C 15,6 C 83 % 990,9 hPa 0,0 l/m 0 min 0 min 104 W/m 6,4 km/h (2 Bft) 100,00 %
02.10.2020 16:32 17,6 C 17,2 C 15,6 C 83 % 990,8 hPa 0,0 l/m 0 min 0 min 103 W/m 6,4 km/h (2 Bft) 100,00 %
02.10.2020 16:34 17,6 C 17,2 C 15,6 C 83 % 990,7 hPa 0,0 l/m 0 min 0 min 100 W/m 12,9 km/h (3 Bft) 97,87 %
02.10.2020 16:36 17,6 C 17,2 C 15,6 C 83 % 990,7 hPa 0,0 l/m 0 min 0 min 99 W/m 6,4 km/h (2 Bft) 100,00 %
02.10.2020 16:38 17,6 C 17,2 C 15,6 C 83 % 990,7 hPa 0,0 l/m 0 min 0 min 98 W/m 9,7 km/h (2 Bft) 97,87 %
02.10.2020 16:40 17,6 C 17,2 C 15,6 C 83 % 990,7 hPa 0,0 l/m 0 min 0 min 98 W/m 9,7 km/h (2 Bft) 100,00 %
02.10.2020 16:42 17,5 C 17,2 C 15,6 C 83 % 990,8 hPa 0,0 l/m 0 min 0 min 98 W/m 6,4 km/h (2 Bft) 100,00 %
02.10.2020 16:44 17,5 C 17,2 C 15,6 C 84 % 990,8 hPa 0,0 l/m 0 min 0 min 97 W/m 6,4 km/h (2 Bft) 97,92 %
02.10.2020 16:46 17,5 C 17,2 C 15,6 C 84 % 990,8 hPa 0,0 l/m 0 min 0 min 97 W/m 0,0 km/h (0 Bft) 97,92 %
02.10.2020 16:48 17,5 C 17,2 C 15,6 C 84 % 990,8 hPa 0,0 l/m 0 min 0 min 97 W/m 6,4 km/h (2 Bft) 100,00 %
02.10.2020 16:50 17,5 C 17,2 C 15,6 C 84 % 990,9 hPa 0,0 l/m 0 min 0 min 97 W/m 0,0 km/h (0 Bft) 97,87 %
02.10.2020 16:52 17,5 C 17,2 C 15,6 C 84 % 990,9 hPa 0,0 l/m 0 min 0 min 97 W/m 0,0 km/h (0 Bft) 97,87 %
02.10.2020 16:54 17,5 C 17,2 C 15,6 C 84 % 990,9 hPa 0,0 l/m 0 min 0 min 95 W/m 3,2 km/h (1 Bft) 97,83 %
02.10.2020 16:56 17,5 C 17,2 C 15,6 C 84 % 990,9 hPa 0,0 l/m 0 min 0 min 95 W/m 3,2 km/h (1 Bft) 100,00 %
02.10.2020 16:58 17,4 C 17,2 C 15,6 C 84 % 990,9 hPa 0,0 l/m 0 min 0 min 95 W/m 6,4 km/h (2 Bft) 97,67 %
02.10.2020 17:00 17,4 C 17,2 C 15,6 C 84 % 990,9 hPa 0,0 l/m 0 min 0 min 93 W/m 6,4 km/h (2 Bft) 97,87 %
02.10.2020 17:02 17,4 C 17,2 C 15,6 C 84 % 990,9 hPa 0,0 l/m 0 min 0 min 91 W/m 3,2 km/h (1 Bft) 95,92 %
02.10.2020 17:04 17,4 C 17,2 C 15,6 C 84 % 990,9 hPa 0,0 l/m 0 min 0 min 90 W/m 3,2 km/h (1 Bft) 97,96 %
02.10.2020 17:06 17,4 C 17,2 C 15,6 C 84 % 990,9 hPa 0,0 l/m 0 min 0 min 88 W/m 0,0 km/h (0 Bft) 97,87 %
02.10.2020 17:08 17,4 C 17,2 C 15,6 C 84 % 990,9 hPa 0,0 l/m 0 min 0 min 87 W/m 0,0 km/h (0 Bft) 97,87 %
02.10.2020 17:10 17,4 C 17,2 C 15,6 C 84 % 990,9 hPa 0,0 l/m 0 min 0 min 83 W/m 0,0 km/h (0 Bft) 97,87 %
02.10.2020 17:12 17,4 C 17,2 C 15,6 C 84 % 990,9 hPa 0,0 l/m 0 min 0 min 80 W/m 0,0 km/h (0 Bft) 97,87 %
02.10.2020 17:14 17,4 C 17,2 C 15,0 C 84 % 990,9 hPa 0,0 l/m 0 min 0 min 77 W/m 0,0 km/h (0 Bft) 97,87 %
02.10.2020 17:16 17,4 C 16,7 C 15,0 C 84 % 990,9 hPa 0,0 l/m 0 min 0 min 77 W/m 0,0 km/h (0 Bft) 95,65 %
02.10.2020 17:18 17,4 C 16,7 C 15,6 C 84 % 991,0 hPa 0,0 l/m 0 min 0 min 77 W/m 6,4 km/h (2 Bft) 95,74 %
02.10.2020 17:20 17,4 C 16,7 C 15,6 C 84 % 991,0 hPa 0,0 l/m 0 min 0 min 79 W/m 6,4 km/h (2 Bft) 92,86 %
02.10.2020 17:22 17,4 C 16,7 C 15,6 C 84 % 991,0 hPa 0,0 l/m 0 min 0 min 78 W/m 0,0 km/h (0 Bft) 93,75 %
02.10.2020 17:24 17,4 C 16,7 C 15,6 C 84 % 991,1 hPa 0,0 l/m 0 min 0 min 77 W/m 0,0 km/h (0 Bft) 95,74 %
02.10.2020 17:26 17,4 C 16,7 C 15,6 C 84 % 991,0 hPa 0,0 l/m 0 min 0 min 76 W/m 0,0 km/h (0 Bft) 93,75 %
02.10.2020 17:28 17,4 C 16,7 C 15,0 C 84 % 991,1 hPa 0,0 l/m 0 min 0 min 74 W/m 0,0 km/h (0 Bft) 95,83 %
02.10.2020 17:30 17,4 C 16,7 C 15,0 C 84 % 991,1 hPa 0,0 l/m 0 min 0 min 72 W/m 0,0 km/h (0 Bft) 95,83 %
02.10.2020 17:32 17,4 C 16,7 C 15,0 C 85 % 991,0 hPa 0,0 l/m 0 min 0 min 68 W/m 0,0 km/h (0 Bft) 97,92 %
02.10.2020 17:34 17,4 C 16,7 C 15,0 C 85 % 991,0 hPa 0,0 l/m 0 min 0 min 64 W/m 0,0 km/h (0 Bft) 95,74 %
02.10.2020 17:36 17,4 C 16,7 C 15,0 C 85 % 991,0 hPa 0,0 l/m 0 min 0 min 60 W/m 0,0 km/h (0 Bft) 93,62 %
02.10.2020 17:38 17,3 C 16,7 C 15,0 C 85 % 990,9 hPa 0,0 l/m 0 min 0 min 55 W/m 0,0 km/h (0 Bft) 95,74 %
02.10.2020 17:40 17,3 C 16,7 C 15,0 C 84 % 990,9 hPa 0,0 l/m 0 min 0 min 53 W/m 0,0 km/h (0 Bft) 95,65 %
02.10.2020 17:42 17,3 C 16,7 C 15,0 C 84 % 990,8 hPa 0,0 l/m 0 min 0 min 49 W/m 6,4 km/h (2 Bft) 93,62 %
02.10.2020 17:44 17,3 C 16,7 C 15,0 C 84 % 990,8 hPa 0,0 l/m 0 min 0 min 47 W/m 6,4 km/h (2 Bft) 95,74 %
02.10.2020 17:46 17,3 C 16,7 C 15,0 C 84 % 990,8 hPa 0,0 l/m 0 min 0 min 44 W/m 0,0 km/h (0 Bft) 92,86 %
02.10.2020 17:48 17,3 C 16,7 C 15,0 C 84 % 990,7 hPa 0,0 l/m 0 min 0 min 41 W/m 0,0 km/h (0 Bft) 95,74 %
02.10.2020 17:50 17,3 C 16,7 C 15,0 C 84 % 990,7 hPa 0,0 l/m 0 min 0 min 40 W/m 0,0 km/h (0 Bft) 95,83 %
02.10.2020 17:52 17,3 C 16,7 C 15,0 C 84 % 990,7 hPa 0,0 l/m 0 min 0 min 40 W/m 9,7 km/h (2 Bft) 93,75 %
02.10.2020 17:54 17,2 C 16,7 C 15,0 C 84 % 990,7 hPa 0,0 l/m 0 min 0 min 41 W/m 6,4 km/h (2 Bft) 95,83 %
02.10.2020 17:56 17,2 C 16,7 C 15,0 C 84 % 990,7 hPa 0,0 l/m 0 min 0 min 42 W/m 0,0 km/h (0 Bft) 95,83 %
02.10.2020 17:58 17,2 C 16,7 C 15,0 C 84 % 990,7 hPa 0,0 l/m 0 min 0 min 42 W/m 6,4 km/h (2 Bft) 95,74 %
02.10.2020 18:00 17,2 C 16,7 C 15,0 C 84 % 990,7 hPa 0,0 l/m 0 min 0 min 41 W/m 6,4 km/h (2 Bft) 100,00 %
02.10.2020 18:02 17,2 C 16,7 C 15,0 C 84 % 990,7 hPa 0,0 l/m 0 min 0 min 40 W/m 6,4 km/h (2 Bft) 95,74 %
02.10.2020 18:04 17,1 C 16,7 C 15,0 C 84 % 990,7 hPa 0,0 l/m 0 min 0 min 39 W/m 0,0 km/h (0 Bft) 100,00 %
02.10.2020 18:08 17,1 C 16,7 C 15,0 C 83 % 990,7 hPa 0,0 l/m 0 min 0 min 33 W/m 0,0 km/h (0 Bft) 100,00 %
02.10.2020 18:10 17,1 C 16,7 C 15,0 C 83 % 990,7 hPa 0,0 l/m 0 min 0 min 34 W/m 0,0 km/h (0 Bft) 97,20 %
02.10.2020 18:12 17,1 C 16,7 C 15,0 C 83 % 990,7 hPa 0,0 l/m 0 min 0 min 30 W/m 0,0 km/h (0 Bft) 97,87 %
02.10.2020 18:14 17,1 C 16,7 C 15,0 C 83 % 990,7 hPa 0,0 l/m 0 min 0 min 27 W/m 0,0 km/h (0 Bft) 95,74 %
02.10.2020 18:16 17,1 C 16,1 C 15,0 C 83 % 990,7 hPa 0,0 l/m 0 min 0 min 25 W/m 0,0 km/h (0 Bft) 95,65 %
02.10.2020 18:18 17,1 C 16,1 C 15,0 C 83 % 990,6 hPa 0,0 l/m 0 min 0 min 22 W/m 0,0 km/h (0 Bft) 97,87 %
02.10.2020 18:20 17,1 C 16,1 C 15,0 C 83 % 990,6 hPa 0,0 l/m 0 min 0 min 20 W/m 0,0 km/h (0 Bft) 97,87 %
02.10.2020 18:22 17,1 C 16,1 C 15,0 C 83 % 990,6 hPa 0,0 l/m 0 min 0 min 18 W/m 6,4 km/h (2 Bft) 95,24 %
02.10.2020 18:24 17,1 C 16,1 C 15,0 C 83 % 990,6 hPa 0,0 l/m 0 min 0 min 17 W/m 6,4 km/h (2 Bft) 97,87 %
02.10.2020 18:26 17,1 C 16,1 C 15,0 C 83 % 990,6 hPa 0,0 l/m 0 min 0 min 16 W/m 6,4 km/h (2 Bft) 97,92 %
02.10.2020 18:28 17,1 C 16,1 C 15,0 C 83 % 990,6 hPa 0,0 l/m 0 min 0 min 15 W/m 0,0 km/h (0 Bft) 97,92 %
02.10.2020 18:30 17,1 C 16,1 C 15,0 C 83 % 990,6 hPa 0,0 l/m 0 min 0 min 14 W/m 3,2 km/h (1 Bft) 91,67 %
02.10.2020 18:32 17,0 C 16,1 C 15,0 C 84 % 990,5 hPa 0,0 l/m 0 min 0 min 14 W/m 0,0 km/h (0 Bft) 95,83 %
02.10.2020 18:34 17,0 C 16,1 C 15,0 C 84 % 990,6 hPa 0,0 l/m 0 min 0 min 12 W/m 0,0 km/h (0 Bft) 97,87 %
02.10.2020 18:36 17,0 C 16,1 C 15,0 C 84 % 990,6 hPa 0,0 l/m 0 min 0 min 12 W/m 6,4 km/h (2 Bft) 97,87 %
02.10.2020 18:38 17,0 C 16,1 C 15,0 C 84 % 990,5 hPa 0,0 l/m 0 min 0 min 11 W/m 3,2 km/h (1 Bft) 95,65 %
02.10.2020 18:40 17,0 C 16,1 C 15,0 C 84 % 990,5 hPa 0,0 l/m 0 min 0 min 10 W/m 3,2 km/h (1 Bft) 97,87 %
02.10.2020 18:42 17,0 C 16,1 C 15,0 C 84 % 990,5 hPa 0,0 l/m 0 min 0 min 9 W/m 0,0 km/h (0 Bft) 95,74 %
02.10.2020 18:44 17,0 C 16,1 C 15,0 C 83 % 990,5 hPa 0,0 l/m 0 min 0 min 7 W/m 0,0 km/h (0 Bft) 97,87 %
02.10.2020 18:46 17,0 C 16,1 C 15,0 C 83 % 990,5 hPa 0,0 l/m 0 min 0 min 7 W/m 0,0 km/h (0 Bft) 95,12 %
02.10.2020 18:48 16,9 C 16,1 C 15,0 C 83 % 990,5 hPa 0,0 l/m 0 min 0 min 5 W/m 0,0 km/h (0 Bft) 97,92 %
02.10.2020 18:50 16,9 C 16,1 C 15,0 C 83 % 990,5 hPa 0,0 l/m 0 min 0 min 5 W/m 0,0 km/h (0 Bft) 97,92 %
02.10.2020 18:52 17,0 C 16,1 C 15,0 C 83 % 990,5 hPa 0,0 l/m 0 min 0 min 4 W/m 3,2 km/h (1 Bft) 97,92 %
02.10.2020 18:54 16,9 C 16,1 C 15,0 C 83 % 990,5 hPa 0,0 l/m 0 min 0 min 0 W/m 6,4 km/h (2 Bft) 97,92 %
02.10.2020 18:56 16,9 C 16,1 C 15,0 C 83 % 990,5 hPa 0,0 l/m 0 min 0 min 0 W/m 6,4 km/h (2 Bft) 53,33 %
02.10.2020 18:58 16,9 C 16,1 C 15,0 C 83 % 990,5 hPa 0,0 l/m 0 min 0 min 0 W/m 0,0 km/h (0 Bft) 100,00 %
02.10.2020 19:00 16,9 C 16,1 C 15,0 C 83 % 990,6 hPa 0,0 l/m 0 min 0 min 0 W/m 6,4 km/h (2 Bft) 100,00 %
02.10.2020 19:02 16,9 C 16,1 C 15,0 C 83 % 990,7 hPa 0,0 l/m 0 min 0 min 0 W/m 3,2 km/h (1 Bft) 97,62 %
02.10.2020 19:04 16,9 C 16,1 C 15,0 C 83 % 990,7 hPa 0,0 l/m 0 min 0 min 0 W/m 0,0 km/h (0 Bft) 100,00 %
02.10.2020 19:06 16,9 C 16,1 C 15,0 C 83 % 990,7 hPa 0,0 l/m 0 min 0 min 0 W/m 0,0 km/h (0 Bft) 97,92 %
02.10.2020 19:08 16,9 C 16,1 C 15,0 C 83 % 990,7 hPa 0,0 l/m 0 min 0 min 0 W/m 0,0 km/h (0 Bft) 100,00 %
02.10.2020 19:10 16,9 C 16,1 C 15,0 C 83 % 990,6 hPa 0,0 l/m 0 min 0 min 0 W/m 0,0 km/h (0 Bft) 97,92 %
02.10.2020 19:12 16,9 C 16,1 C 15,0 C 83 % 990,7 hPa 0,0 l/m 0 min 0 min 0 W/m 0,0 km/h (0 Bft) 97,87 %
02.10.2020 19:14 16,9 C 16,1 C 15,0 C 83 % 990,6 hPa 0,0 l/m 0 min 0 min 0 W/m 0,0 km/h (0 Bft) 100,00 %
02.10.2020 19:16 16,9 C 16,1 C 15,0 C 83 % 990,6 hPa 0,0 l/m 0 min 0 min 0 W/m 0,0 km/h (0 Bft) 97,87 %
02.10.2020 19:18 16,9 C 16,1 C 15,0 C 83 % 990,6 hPa 0,0 l/m 0 min 0 min 0 W/m 6,4 km/h (2 Bft) 100,00 %
02.10.2020 19:20 16,9 C 16,1 C 15,0 C 83 % 990,6 hPa 0,0 l/m 0 min 0 min 0 W/m 6,4 km/h (2 Bft) 100,00 %
02.10.2020 19:22 16,9 C 16,1 C 15,0 C 83 % 990,6 hPa 0,0 l/m 0 min 0 min 0 W/m 6,4 km/h (2 Bft) 100,00 %
02.10.2020 19:24 16,9 C 16,1 C 15,0 C 83 % 990,6 hPa 0,0 l/m 0 min 0 min 0 W/m 0,0 km/h (0 Bft) 100,00 %
02.10.2020 19:26 16,9 C 16,1 C 15,0 C 83 % 990,7 hPa 0,0 l/m 0 min 0 min 0 W/m 0,0 km/h (0 Bft) 97,92 %
02.10.2020 19:28 16,8 C 16,1 C 15,0 C 83 % 990,7 hPa 0,0 l/m 0 min 0 min 0 W/m 0,0 km/h (0 Bft) 100,00 %
02.10.2020 19:30 16,8 C 16,1 C 15,0 C 83 % 990,7 hPa 0,0 l/m 0 min 2 min 0 W/m 0,0 km/h (0 Bft) 100,00 %
02.10.2020 19:32 16,8 C 15,6 C 14,4 C 83 % 990,7 hPa 0,0 l/m 0 min 0 min 0 W/m 0,0 km/h (0 Bft) 97,87 %
02.10.2020 19:34 16,8 C 15,6 C 14,4 C 83 % 990,8 hPa 0,0 l/m 0 min 0 min 0 W/m 6,4 km/h (2 Bft) 100,00 %
02.10.2020 19:36 16,8 C 15,6 C 14,4 C 83 % 990,8 hPa 0,0 l/m 0 min 0 min 0 W/m 0,0 km/h (0 Bft) 100,00 %
02.10.2020 19:38 16,8 C 15,6 C 14,4 C 83 % 990,8 hPa 0,0 l/m 0 min 0 min 0 W/m 0,0 km/h (0 Bft) 100,00 %
02.10.2020 19:40 16,8 C 15,6 C 14,4 C 83 % 990,8 hPa 0,0 l/m 0 min 0 min 0 W/m 6,4 km/h (2 Bft) 100,00 %
02.10.2020 19:42 16,8 C 15,6 C 14,4 C 83 % 990,8 hPa 0,0 l/m 0 min 0 min 0 W/m 9,7 km/h (2 Bft) 100,00 %
02.10.2020 19:44 16,8 C 15,6 C 14,4 C 83 % 990,8 hPa 0,0 l/m 0 min 0 min 0 W/m 3,2 km/h (1 Bft) 100,00 %
02.10.2020 19:46 16,8 C 15,6 C 14,4 C 83 % 990,8 hPa 0,0 l/m 0 min 0 min 0 W/m 0,0 km/h (0 Bft) 100,00 %
02.10.2020 19:48 16,7 C 15,6 C 14,4 C 83 % 990,8 hPa 0,0 l/m 0 min 2 min 0 W/m 0,0 km/h (0 Bft) 100,00 %
02.10.2020 19:50 16,7 C 15,6 C 14,4 C 83 % 990,8 hPa 0,0 l/m 0 min 0 min 0 W/m 0,0 km/h (0 Bft) 97,87 %
02.10.2020 19:52 16,7 C 15,6 C 14,4 C 83 % 990,8 hPa 0,0 l/m 0 min 2 min 0 W/m 0,0 km/h (0 Bft) 95,83 %
02.10.2020 19:54 16,7 C 15,6 C 14,4 C 83 % 990,8 hPa 0,0 l/m 0 min 2 min 0 W/m 0,0 km/h (0 Bft) 97,92 %
02.10.2020 19:56 16,7 C 15,0 C 14,4 C 84 % 990,8 hPa 0,0 l/m 0 min 2 min 0 W/m 0,0 km/h (0 Bft) 97,87 %
02.10.2020 19:58 16,7 C 15,0 C 14,4 C 84 % 990,7 hPa 0,0 l/m 0 min 2 min 0 W/m 0,0 km/h (0 Bft) 95,74 %
02.10.2020 20:00 16,7 C 14,4 C 14,4 C 84 % 990,7 hPa 0,0 l/m 0 min 0 min 0 W/m 0,0 km/h (0 Bft) 97,92 %
02.10.2020 20:02 16,7 C 14,4 C 14,4 C 84 % 990,7 hPa 0,0 l/m 0 min 2 min 0 W/m 6,4 km/h (2 Bft) 95,83 %
02.10.2020 20:04 16,7 C 14,4 C 14,4 C 84 % 990,6 hPa 0,0 l/m 0 min 0 min 0 W/m 6,4 km/h (2 Bft) 97,87 %
02.10.2020 20:06 16,6 C 15,0 C 13,9 C 85 % 990,6 hPa 0,0 l/m 0 min 2 min 0 W/m 9,7 km/h (2 Bft) 97,87 %
02.10.2020 20:08 16,6 C 14,4 C 13,9 C 85 % 990,5 hPa 0,0 l/m 0 min 2 min 0 W/m 16,1 km/h (3 Bft) 97,56 %
02.10.2020 20:10 16,6 C 14,4 C 13,9 C 85 % 990,5 hPa 0,0 l/m 0 min 2 min 0 W/m 3,2 km/h (1 Bft) 97,92 %
02.10.2020 20:12 16,6 C 13,9 C 13,9 C 85 % 990,5 hPa 0,0 l/m 0 min 2 min 0 W/m 6,4 km/h (2 Bft) 93,62 %
02.10.2020 20:14 16,5 C 13,9 C 13,9 C 85 % 990,4 hPa 0,0 l/m 0 min 2 min 0 W/m 6,4 km/h (2 Bft) 95,83 %
02.10.2020 20:16 16,4 C 13,9 C 13,9 C 85 % 990,4 hPa 0,0 l/m 0 min 0 min 0 W/m 3,2 km/h (1 Bft) 95,83 %
02.10.2020 20:18 16,4 C 13,9 C 13,9 C 85 % 990,3 hPa 0,0 l/m 0 min 2 min 0 W/m 6,4 km/h (2 Bft) 95,74 %
02.10.2020 20:20 16,4 C 13,9 C 13,9 C 86 % 990,3 hPa 0,0 l/m 0 min 2 min 0 W/m 9,7 km/h (2 Bft) 93,62 %
02.10.2020 20:22 16,3 C 13,9 C 13,9 C 86 % 990,3 hPa 0,0 l/m 0 min 0 min 0 W/m 6,4 km/h (2 Bft) 95,83 %
02.10.2020 20:24 16,3 C 13,9 C 13,9 C 86 % 990,3 hPa 0,0 l/m 0 min 2 min 0 W/m 6,4 km/h (2 Bft) 93,62 %
02.10.2020 20:26 16,3 C 13,9 C 13,9 C 86 % 990,3 hPa 0,0 l/m 0 min 0 min 0 W/m 6,4 km/h (2 Bft) 95,74 %
02.10.2020 20:28 16,2 C 14,4 C 13,9 C 86 % 990,4 hPa 0,0 l/m 0 min 0 min 0 W/m 6,4 km/h (2 Bft) 95,74 %
02.10.2020 20:30 16,2 C 14,4 C 13,9 C 86 % 990,4 hPa 0,0 l/m 0 min 0 min 0 W/m 3,2 km/h (1 Bft) 93,62 %
02.10.2020 20:32 16,2 C 14,4 C 13,9 C 87 % 990,5 hPa 0,0 l/m 0 min 0 min 0 W/m 0,0 km/h (0 Bft) 94,74 %
02.10.2020 20:34 16,2 C 14,4 C 13,9 C 87 % 990,5 hPa 0,0 l/m 0 min 2 min 0 W/m 0,0 km/h (0 Bft) 95,74 %
02.10.2020 20:36 16,1 C 14,4 C 13,9 C 87 % 990,5 hPa 0,0 l/m 0 min 0 min 0 W/m 0,0 km/h (0 Bft) 97,87 %
02.10.2020 20:38 16,1 C 14,4 C 13,9 C 87 % 990,5 hPa 0,0 l/m 0 min 2 min 0 W/m 0,0 km/h (0 Bft) 95,74 %
02.10.2020 20:40 16,1 C 14,4 C 13,9 C 87 % 990,5 hPa 0,2 l/m 0 min 0 min 0 W/m 6,4 km/h (2 Bft) 93,62 %
02.10.2020 20:42 16,1 C 14,4 C 13,9 C 87 % 990,5 hPa 0,0 l/m 0 min 0 min 0 W/m 0,0 km/h (0 Bft) 95,74 %
02.10.2020 20:44 16,1 C 14,4 C 13,9 C 88 % 990,5 hPa 0,0 l/m 0 min 0 min 0 W/m 0,0 km/h (0 Bft) 97,83 %
02.10.2020 20:46 16,1 C 15,0 C 13,9 C 88 % 990,5 hPa 0,0 l/m 0 min 2 min 0 W/m 6,4 km/h (2 Bft) 97,87 %
02.10.2020 20:48 16,1 C 14,4 C 13,9 C 88 % 990,4 hPa 0,0 l/m 0 min 2 min 0 W/m 3,2 km/h (1 Bft) 95,74 %
02.10.2020 20:50 16,0 C 14,4 C 13,9 C 88 % 990,4 hPa 0,0 l/m 0 min 2 min 0 W/m 6,4 km/h (2 Bft) 97,87 %
02.10.2020 20:52 16,0 C 14,4 C 13,9 C 88 % 990,4 hPa 0,0 l/m 0 min 2 min 0 W/m 3,2 km/h (1 Bft) 97,87 %
02.10.2020 20:54 16,0 C 14,4 C 13,9 C 88 % 990,3 hPa 0,0 l/m 0 min 2 min 0 W/m 6,4 km/h (2 Bft) 97,87 %
02.10.2020 20:56 15,9 C 14,4 C 13,9 C 88 % 990,3 hPa 0,0 l/m 0 min 2 min 0 W/m 6,4 km/h (2 Bft) 97,83 %
02.10.2020 20:58 15,9 C 13,9 C 13,9 C 88 % 990,3 hPa 0,0 l/m 0 min 2 min 0 W/m 6,4 km/h (2 Bft) 97,87 %
02.10.2020 21:00 15,9 C 13,9 C 13,9 C 88 % 990,2 hPa 0,0 l/m 0 min 0 min 0 W/m 0,0 km/h (0 Bft) 97,87 %
02.10.2020 21:02 15,9 C 13,9 C 13,9 C 88 % 990,2 hPa 0,0 l/m 0 min 2 min 0 W/m 3,2 km/h (1 Bft) 100,00 %
02.10.2020 21:04 15,9 C 13,9 C 13,9 C 89 % 990,2 hPa 0,0 l/m 0 min 2 min 0 W/m 0,0 km/h (0 Bft) 100,00 %
02.10.2020 21:06 15,9 C 13,9 C 13,9 C 89 % 990,3 hPa 0,0 l/m 0 min 0 min 0 W/m 0,0 km/h (0 Bft) 100,00 %
02.10.2020 21:08 15,8 C 13,9 C 13,9 C 89 % 990,2 hPa 0,0 l/m 0 min 2 min 0 W/m 0,0 km/h (0 Bft) 97,83 %
02.10.2020 21:10 15,8 C 13,9 C 13,9 C 89 % 990,2 hPa 0,0 l/m 0 min 2 min 0 W/m 6,4 km/h (2 Bft) 100,00 %
02.10.2020 21:12 15,8 C 13,9 C 13,9 C 89 % 990,1 hPa 0,0 l/m 0 min 0 min 0 W/m 6,4 km/h (2 Bft) 97,87 %
02.10.2020 21:14 15,8 C 13,9 C 13,9 C 89 % 990,2 hPa 0,0 l/m 0 min 2 min 0 W/m 6,4 km/h (2 Bft) 97,87 %
02.10.2020 21:16 15,8 C 13,9 C 13,9 C 89 % 990,2 hPa 0,0 l/m 0 min 2 min 0 W/m 6,4 km/h (2 Bft) 95,74 %
02.10.2020 21:18 15,8 C 13,9 C 13,9 C 89 % 990,2 hPa 0,0 l/m 0 min 0 min 0 W/m 0,0 km/h (0 Bft) 97,87 %
02.10.2020 21:20 15,7 C 14,4 C 13,9 C 90 % 990,2 hPa 0,0 l/m 0 min 2 min 0 W/m 0,0 km/h (0 Bft) 95,65 %
02.10.2020 21:22 15,7 C 14,4 C 13,9 C 89 % 990,2 hPa 0,0 l/m 0 min 2 min 0 W/m 6,4 km/h (2 Bft) 97,87 %
02.10.2020 21:24 15,7 C 14,4 C 13,9 C 90 % 990,2 hPa 0,0 l/m 0 min 0 min 0 W/m 0,0 km/h (0 Bft) 97,87 %
02.10.2020 21:26 15,7 C 14,4 C 13,9 C 90 % 990,2 hPa 0,0 l/m 0 min 0 min 0 W/m 6,4 km/h (2 Bft) 97,87 %
02.10.2020 21:28 15,7 C 14,4 C 13,9 C 90 % 990,1 hPa 0,0 l/m 0 min 0 min 0 W/m 9,7 km/h (2 Bft) 97,87 %
02.10.2020 21:30 15,7 C 14,4 C 13,9 C 90 % 990,1 hPa 0,0 l/m 0 min 0 min 0 W/m 0,0 km/h (0 Bft) 97,87 %
02.10.2020 21:32 15,7 C 14,4 C 13,9 C 90 % 990,1 hPa 0,0 l/m 0 min 0 min 0 W/m 0,0 km/h (0 Bft) 97,83 %
02.10.2020 21:34 15,7 C 14,4 C 13,9 C 90 % 990,2 hPa 0,0 l/m 0 min 0 min 0 W/m 0,0 km/h (0 Bft) 97,87 %
02.10.2020 21:36 15,7 C 14,4 C 13,9 C 90 % 990,1 hPa 0,0 l/m 0 min 0 min 0 W/m 0,0 km/h (0 Bft) 95,74 %
02.10.2020 21:38 15,6 C 14,4 C 13,9 C 90 % 990,1 hPa 0,0 l/m 0 min 0 min 0 W/m 0,0 km/h (0 Bft) 97,87 %
02.10.2020 21:40 15,6 C 14,4 C 13,9 C 90 % 990,0 hPa 0,0 l/m 0 min 0 min 0 W/m 0,0 km/h (0 Bft) 97,87 %
02.10.2020 21:42 15,6 C 14,4 C 13,9 C 90 % 990,0 hPa 0,0 l/m 0 min 0 min 0 W/m 6,4 km/h (2 Bft) 97,83 %
02.10.2020 21:44 15,6 C 14,4 C 13,9 C 90 % 989,8 hPa 0,0 l/m 0 min 0 min 0 W/m 0,0 km/h (0 Bft) 97,87 %
02.10.2020 21:46 15,6 C 14,4 C 13,9 C 90 % 989,8 hPa 0,0 l/m 0 min 0 min 0 W/m 3,2 km/h (1 Bft) 97,87 %
02.10.2020 21:48 15,6 C 15,0 C 13,9 C 90 % 989,8 hPa 0,0 l/m 0 min 0 min 0 W/m 6,4 km/h (2 Bft) 97,87 %
02.10.2020 21:50 15,6 C 14,4 C 13,9 C 90 % 989,8 hPa 0,0 l/m 0 min 0 min 0 W/m 0,0 km/h (0 Bft) 97,87 %
02.10.2020 21:52 15,6 C 14,4 C 13,9 C 90 % 989,7 hPa 0,0 l/m 0 min 0 min 0 W/m 0,0 km/h (0 Bft) 95,74 %
02.10.2020 21:54 15,6 C 15,0 C 13,9 C 90 % 989,7 hPa 0,0 l/m 0 min 0 min 0 W/m 0,0 km/h (0 Bft) 97,83 %
02.10.2020 21:56 15,6 C 15,0 C 13,9 C 90 % 989,6 hPa 0,0 l/m 0 min 0 min 0 W/m 0,0 km/h (0 Bft) 97,87 %
02.10.2020 21:58 15,6 C 15,0 C 13,9 C 90 % 989,6 hPa 0,0 l/m 0 min 0 min 0 W/m 0,0 km/h (0 Bft) 97,87 %
02.10.2020 22:00 15,6 C 15,0 C 13,9 C 90 % 989,5 hPa 0,0 l/m 0 min 0 min 0 W/m 9,7 km/h (2 Bft) 97,87 %
02.10.2020 22:02 15,6 C 15,0 C 13,9 C 90 % 989,5 hPa 0,0 l/m 0 min 0 min 0 W/m 3,2 km/h (1 Bft) 98,00 %
02.10.2020 22:04 15,6 C 15,0 C 13,9 C 90 % 989,4 hPa 0,0 l/m 0 min 0 min 0 W/m 0,0 km/h (0 Bft) 100,00 %
02.10.2020 22:06 15,6 C 15,0 C 13,9 C 90 % 989,4 hPa 0,0 l/m 0 min 0 min 0 W/m 3,2 km/h (1 Bft) 97,83 %
02.10.2020 22:08 15,6 C 15,0 C 13,9 C 90 % 989,2 hPa 0,0 l/m 0 min 0 min 0 W/m 9,7 km/h (2 Bft) 100,00 %
02.10.2020 22:10 15,6 C 15,0 C 13,9 C 90 % 989,2 hPa 0,0 l/m 0 min 0 min 0 W/m 6,4 km/h (2 Bft) 97,87 %
02.10.2020 22:12 15,6 C 15,0 C 13,9 C 90 % 989,2 hPa 0,0 l/m 0 min 0 min 0 W/m 0,0 km/h (0 Bft) 100,00 %
02.10.2020 22:14 15,6 C 15,0 C 13,9 C 90 % 989,1 hPa 0,0 l/m 0 min 0 min 0 W/m 0,0 km/h (0 Bft) 100,00 %
02.10.2020 22:16 15,6 C 15,0 C 13,9 C 90 % 989,1 hPa 0,0 l/m 0 min 0 min 0 W/m 0,0 km/h (0 Bft) 100,00 %
02.10.2020 22:18 15,6 C 15,0 C 13,9 C 90 % 989,1 hPa 0,0 l/m 0 min 0 min 0 W/m 9,7 km/h (2 Bft) 100,00 %
02.10.2020 22:20 15,6 C 15,0 C 13,9 C 90 % 989,1 hPa 0,0 l/m 0 min 0 min 0 W/m 12,9 km/h (3 Bft) 100,00 %
02.10.2020 22:22 15,6 C 15,0 C 13,9 C 90 % 989,1 hPa 0,0 l/m 0 min 0 min 0 W/m 9,7 km/h (2 Bft) 100,00 %
02.10.2020 22:24 15,6 C 15,0 C 13,9 C 90 % 989,1 hPa 0,0 l/m 0 min 0 min 0 W/m 16,1 km/h (3 Bft) 100,00 %
02.10.2020 22:26 15,6 C 15,0 C 13,9 C 90 % 989,0 hPa 0,0 l/m 0 min 0 min 0 W/m 0,0 km/h (0 Bft) 100,00 %
02.10.2020 22:28 15,7 C 15,0 C 13,9 C 90 % 989,0 hPa 0,0 l/m 0 min 0 min 0 W/m 0,0 km/h (0 Bft) 97,83 %
02.10.2020 22:30 15,6 C 15,0 C 13,9 C 90 % 989,0 hPa 0,0 l/m 0 min 0 min 0 W/m 12,9 km/h (3 Bft) 100,00 %
02.10.2020 22:32 15,7 C 15,0 C 13,9 C 90 % 988,9 hPa 0,0 l/m 0 min 0 min 0 W/m 6,4 km/h (2 Bft) 97,87 %
02.10.2020 22:34 15,7 C 15,0 C 13,9 C 90 % 988,9 hPa 0,0 l/m 0 min 0 min 0 W/m 0,0 km/h (0 Bft) 100,00 %
02.10.2020 22:36 15,7 C 15,0 C 13,9 C 90 % 988,9 hPa 0,0 l/m 0 min 0 min 0 W/m 0,0 km/h (0 Bft) 97,87 %
02.10.2020 22:38 15,7 C 15,0 C 13,9 C 90 % 988,9 hPa 0,0 l/m 0 min 0 min 0 W/m 16,1 km/h (3 Bft) 97,87 %
02.10.2020 22:40 15,7 C 15,6 C 14,4 C 89 % 988,9 hPa 0,0 l/m 0 min 0 min 0 W/m 12,9 km/h (3 Bft) 95,65 %
02.10.2020 22:42 15,7 C 15,0 C 14,4 C 89 % 988,9 hPa 0,0 l/m 0 min 0 min 0 W/m 0,0 km/h (0 Bft) 97,87 %
02.10.2020 22:44 15,7 C 15,0 C 14,4 C 89 % 988,9 hPa 0,0 l/m 0 min 0 min 0 W/m 0,0 km/h (0 Bft) 95,74 %
02.10.2020 22:46 15,8 C 15,0 C 14,4 C 89 % 988,9 hPa 0,0 l/m 0 min 0 min 0 W/m 12,9 km/h (3 Bft) 95,74 %
02.10.2020 22:48 15,8 C 15,0 C 14,4 C 89 % 989,0 hPa 0,0 l/m 0 min 0 min 0 W/m 6,4 km/h (2 Bft) 97,87 %
02.10.2020 22:50 15,8 C 15,0 C 14,4 C 89 % 989,0 hPa 0,0 l/m 0 min 0 min 0 W/m 0,0 km/h (0 Bft) 97,87 %
02.10.2020 22:52 15,8 C 15,0 C 14,4 C 89 % 989,0 hPa 0,0 l/m 0 min 0 min 0 W/m 0,0 km/h (0 Bft) 95,65 %
02.10.2020 22:54 15,8 C 15,0 C 13,9 C 89 % 989,0 hPa 0,0 l/m 0 min 0 min 0 W/m 6,4 km/h (2 Bft) 95,74 %
02.10.2020 22:56 15,8 C 15,0 C 13,9 C 89 % 989,1 hPa 0,0 l/m 0 min 0 min 0 W/m 6,4 km/h (2 Bft) 93,62 %
02.10.2020 22:58 15,8 C 15,0 C 13,9 C 89 % 989,1 hPa 0,0 l/m 0 min 0 min 0 W/m 12,9 km/h (3 Bft) 95,74 %
02.10.2020 23:00 15,8 C 15,0 C 13,9 C 89 % 989,1 hPa 0,0 l/m 0 min 0 min 0 W/m 12,9 km/h (3 Bft) 97,87 %
02.10.2020 23:02 15,8 C 15,0 C 13,9 C 89 % 989,1 hPa 0,0 l/m 0 min 0 min 0 W/m 0,0 km/h (0 Bft) 93,62 %
02.10.2020 23:04 15,8 C 15,0 C 13,9 C 89 % 989,1 hPa 0,0 l/m 0 min 0 min 0 W/m 0,0 km/h (0 Bft) 95,65 %
02.10.2020 23:06 15,8 C 15,0 C 13,9 C 89 % 989,0 hPa 0,0 l/m 0 min 0 min 0 W/m 0,0 km/h (0 Bft) 95,74 %
02.10.2020 23:08 15,8 C 15,0 C 13,9 C 89 % 988,9 hPa 0,0 l/m 0 min 0 min 0 W/m 0,0 km/h (0 Bft) 95,74 %
02.10.2020 23:10 15,8 C 15,0 C 13,9 C 89 % 988,9 hPa 0,0 l/m 0 min 0 min 0 W/m 19,3 km/h (3 Bft) 95,74 %
02.10.2020 23:12 15,8 C 15,0 C 13,9 C 88 % 989,0 hPa 0,0 l/m 0 min 0 min 0 W/m 6,4 km/h (2 Bft) 95,74 %
02.10.2020 23:14 15,8 C 15,0 C 13,9 C 88 % 989,0 hPa 0,0 l/m 0 min 0 min 0 W/m 3,2 km/h (1 Bft) 93,48 %
02.10.2020 23:16 15,8 C 15,0 C 13,9 C 89 % 989,0 hPa 0,0 l/m 0 min 0 min 0 W/m 0,0 km/h (0 Bft) 97,87 %
02.10.2020 23:18 15,8 C 15,0 C 13,9 C 89 % 989,0 hPa 0,0 l/m 0 min 0 min 0 W/m 0,0 km/h (0 Bft) 97,87 %
02.10.2020 23:20 15,8 C 15,0 C 13,9 C 89 % 989,1 hPa 0,0 l/m 0 min 0 min 0 W/m 0,0 km/h (0 Bft) 97,87 %
02.10.2020 23:22 15,8 C 15,0 C 13,9 C 89 % 989,0 hPa 0,0 l/m 0 min 0 min 0 W/m 9,7 km/h (2 Bft) 97,87 %
02.10.2020 23:24 15,8 C 15,0 C 13,9 C 89 % 989,0 hPa 0,0 l/m 0 min 0 min 0 W/m 0,0 km/h (0 Bft) 97,87 %
02.10.2020 23:26 15,8 C 15,0 C 13,9 C 89 % 989,1 hPa 0,0 l/m 0 min 0 min 0 W/m 6,4 km/h (2 Bft) 95,74 %
02.10.2020 23:28 15,8 C 15,0 C 13,9 C 89 % 989,0 hPa 0,0 l/m 0 min 0 min 0 W/m 9,7 km/h (2 Bft) 97,87 %
02.10.2020 23:30 15,8 C 15,0 C 13,9 C 89 % 989,0 hPa 0,0 l/m 0 min 0 min 0 W/m 3,2 km/h (1 Bft) 95,65 %
02.10.2020 23:32 15,8 C 15,0 C 13,9 C 89 % 989,1 hPa 0,0 l/m 0 min 0 min 0 W/m 0,0 km/h (0 Bft) 97,92 %
02.10.2020 23:34 15,8 C 15,0 C 13,9 C 89 % 989,1 hPa 0,0 l/m 0 min 0 min 0 W/m 0,0 km/h (0 Bft) 97,87 %
02.10.2020 23:36 15,8 C 15,0 C 13,9 C 89 % 989,0 hPa 0,0 l/m 0 min 0 min 0 W/m 3,2 km/h (1 Bft) 97,87 %
02.10.2020 23:38 15,8 C 15,0 C 13,9 C 89 % 989,0 hPa 0,0 l/m 0 min 0 min 0 W/m 0,0 km/h (0 Bft) 97,87 %
02.10.2020 23:40 15,8 C 15,0 C 13,9 C 89 % 988,9 hPa 0,0 l/m 0 min 0 min 0 W/m 3,2 km/h (1 Bft) 97,87 %
02.10.2020 23:42 15,7 C 15,0 C 13,9 C 89 % 989,0 hPa 0,0 l/m 0 min 0 min 0 W/m 0,0 km/h (0 Bft) 97,83 %
02.10.2020 23:44 15,7 C 15,0 C 13,9 C 89 % 989,1 hPa 0,0 l/m 0 min 0 min 0 W/m 12,9 km/h (3 Bft) 97,87 %
02.10.2020 23:46 15,8 C 15,0 C 13,9 C 89 % 989,1 hPa 0,0 l/m 0 min 0 min 0 W/m 6,4 km/h (2 Bft) 95,74 %
02.10.2020 23:48 15,7 C 15,0 C 13,9 C 89 % 989,1 hPa 0,0 l/m 0 min 0 min 0 W/m 3,2 km/h (1 Bft) 97,87 %
02.10.2020 23:50 15,7 C 15,0 C 13,9 C 89 % 989,2 hPa 0,0 l/m 0 min 0 min 0 W/m 0,0 km/h (0 Bft) 97,87 %
02.10.2020 23:52 15,7 C 15,0 C 13,9 C 89 % 989,2 hPa 0,0 l/m 0 min 0 min 0 W/m 0,0 km/h (0 Bft) 95,74 %
02.10.2020 23:54 15,7 C 15,0 C 13,9 C 89 % 989,2 hPa 0,0 l/m 0 min 0 min 0 W/m 0,0 km/h (0 Bft) 97,83 %
02.10.2020 23:56 15,7 C 15,0 C 13,9 C 89 % 989,2 hPa 0,0 l/m 0 min 0 min 0 W/m 0,0 km/h (0 Bft) 95,74 %
02.10.2020 23:58 15,7 C 15,0 C 13,9 C 89 % 989,2 hPa 0,0 l/m 0 min 0 min 0 W/m 0,0 km/h (0 Bft) 100,00 %
_ Min-Zeit 06:26 04:53 04:53 15:06 22:32 - - - - 00:02 00:02
Minimum _ 8,6 C 7,2 C 7,2 C 80 % 988,9 hPa - - - - 0,0 km/h (0 Bft) 15,38 %
_ Max-Zeit 15:22 14:56 14:48 08:32 00:00 02:34 12:07 00:20 12:07 11:50 00:08
Maximum _ 18,5 C 21,7 C 16,7 C 99 % 1000,7 hPa 0,2 l/m 3 min 2 min 540 W/m 29,0 km/h
SO (5 Bft)
100,00 %
Durchschnitt _ 13,5 C 13,2 C 12,0 C 90 % 994,3 hPa #0,4 l/m #2:21 h #1:18 h 151 W/m 3,3 km/h (1 Bft) 97,30 %
© 2020 W. Hausmann